<?xml version="1.0" encoding="UTF-8" standalone="no" ?>
<gpx xmlns="http://www.topografix.com/GPX/1/1" xmlns:xsi="http://www.w3.org/2001/XMLSchema-instance" xsi:schemaLocation="http://www.topografix.com/GPX/1/1 http://www.topografix.com/GPX/1/1/gpx.xsd" version="1.1" creator="VisuGPX - https://www.visugpx.com">
  <metadata>
    <name>Châteauneuf-du-Pape 27km</name>
    <desc><![CDATA[Châteauneuf-du-Pape 27km]]></desc>
  </metadata>
  <trk>
    <name><![CDATA[Dans les vignobles de Châteauneuf-du-Pape - 6570 - UtagawaVTT.com]]></name>
    <trkseg>
      <trkpt lat="44.05791" lon="4.82938">
        <ele>105</ele>
        <time>2012-05-09T06:56:15Z</time>
      </trkpt>
      <trkpt lat="44.05769" lon="4.82939">
        <ele>104</ele>
        <time>2012-05-09T06:56:23Z</time>
      </trkpt>
      <trkpt lat="44.05735" lon="4.82952">
        <ele>97</ele>
        <time>2012-05-09T06:56:34Z</time>
      </trkpt>
      <trkpt lat="44.05721" lon="4.8296">
        <ele>96</ele>
        <time>2012-05-09T06:56:43Z</time>
      </trkpt>
      <trkpt lat="44.05715" lon="4.82962">
        <ele>96</ele>
        <time>2012-05-09T06:56:52Z</time>
      </trkpt>
      <trkpt lat="44.05707" lon="4.82964">
        <ele>95</ele>
        <time>2012-05-09T06:56:59Z</time>
      </trkpt>
      <trkpt lat="44.05692" lon="4.82978">
        <ele>94</ele>
        <time>2012-05-09T06:57:16Z</time>
      </trkpt>
      <trkpt lat="44.05689" lon="4.82985">
        <ele>94</ele>
        <time>2012-05-09T06:57:23Z</time>
      </trkpt>
      <trkpt lat="44.05689" lon="4.83013">
        <ele>93</ele>
        <time>2012-05-09T06:57:35Z</time>
      </trkpt>
      <trkpt lat="44.05694" lon="4.83032">
        <ele>94</ele>
        <time>2012-05-09T06:57:41Z</time>
      </trkpt>
      <trkpt lat="44.05716" lon="4.83049">
        <ele>94</ele>
        <time>2012-05-09T06:57:52Z</time>
      </trkpt>
      <trkpt lat="44.05719" lon="4.83049">
        <ele>94</ele>
        <time>2012-05-09T06:57:53Z</time>
      </trkpt>
      <trkpt lat="44.05754" lon="4.83031">
        <ele>98</ele>
        <time>2012-05-09T06:58:07Z</time>
      </trkpt>
      <trkpt lat="44.05763" lon="4.83027">
        <ele>98</ele>
        <time>2012-05-09T06:58:11Z</time>
      </trkpt>
      <trkpt lat="44.05759" lon="4.83038">
        <ele>97</ele>
        <time>2012-05-09T06:58:18Z</time>
      </trkpt>
      <trkpt lat="44.05754" lon="4.8304">
        <ele>97</ele>
        <time>2012-05-09T06:58:20Z</time>
      </trkpt>
      <trkpt lat="44.0576" lon="4.83072">
        <ele>95</ele>
        <time>2012-05-09T06:58:30Z</time>
      </trkpt>
      <trkpt lat="44.05762" lon="4.83083">
        <ele>91</ele>
        <time>2012-05-09T06:58:34Z</time>
      </trkpt>
      <trkpt lat="44.05763" lon="4.83099">
        <ele>90</ele>
        <time>2012-05-09T06:58:39Z</time>
      </trkpt>
      <trkpt lat="44.05763" lon="4.83102">
        <ele>89</ele>
        <time>2012-05-09T06:58:41Z</time>
      </trkpt>
      <trkpt lat="44.05783" lon="4.8313">
        <ele>86</ele>
        <time>2012-05-09T06:58:55Z</time>
      </trkpt>
      <trkpt lat="44.05799" lon="4.83144">
        <ele>85</ele>
        <time>2012-05-09T06:59:00Z</time>
      </trkpt>
      <trkpt lat="44.058" lon="4.83163">
        <ele>84</ele>
        <time>2012-05-09T06:59:07Z</time>
      </trkpt>
      <trkpt lat="44.058" lon="4.83171">
        <ele>79</ele>
        <time>2012-05-09T06:59:11Z</time>
      </trkpt>
      <trkpt lat="44.05787" lon="4.83228">
        <ele>78</ele>
        <time>2012-05-09T06:59:21Z</time>
      </trkpt>
      <trkpt lat="44.05786" lon="4.83243">
        <ele>77</ele>
        <time>2012-05-09T06:59:25Z</time>
      </trkpt>
      <trkpt lat="44.05754" lon="4.83236">
        <ele>77</ele>
        <time>2012-05-09T06:59:37Z</time>
      </trkpt>
      <trkpt lat="44.0573" lon="4.83226">
        <ele>77</ele>
        <time>2012-05-09T06:59:44Z</time>
      </trkpt>
      <trkpt lat="44.05698" lon="4.83214">
        <ele>78</ele>
        <time>2012-05-09T06:59:53Z</time>
      </trkpt>
      <trkpt lat="44.05675" lon="4.83216">
        <ele>77</ele>
        <time>2012-05-09T06:59:58Z</time>
      </trkpt>
      <trkpt lat="44.05651" lon="4.83205">
        <ele>76</ele>
        <time>2012-05-09T07:00:04Z</time>
      </trkpt>
      <trkpt lat="44.05617" lon="4.83195">
        <ele>76</ele>
        <time>2012-05-09T07:00:12Z</time>
      </trkpt>
      <trkpt lat="44.05589" lon="4.83196">
        <ele>75</ele>
        <time>2012-05-09T07:00:21Z</time>
      </trkpt>
      <trkpt lat="44.05587" lon="4.83202">
        <ele>75</ele>
        <time>2012-05-09T07:00:22Z</time>
      </trkpt>
      <trkpt lat="44.05565" lon="4.83289">
        <ele>65</ele>
        <time>2012-05-09T07:00:34Z</time>
      </trkpt>
      <trkpt lat="44.05555" lon="4.83354">
        <ele>61</ele>
        <time>2012-05-09T07:00:43Z</time>
      </trkpt>
      <trkpt lat="44.05556" lon="4.83386">
        <ele>61</ele>
        <time>2012-05-09T07:00:48Z</time>
      </trkpt>
      <trkpt lat="44.05568" lon="4.83402">
        <ele>61</ele>
        <time>2012-05-09T07:00:52Z</time>
      </trkpt>
      <trkpt lat="44.05586" lon="4.83406">
        <ele>62</ele>
        <time>2012-05-09T07:00:57Z</time>
      </trkpt>
      <trkpt lat="44.05591" lon="4.83416">
        <ele>62</ele>
        <time>2012-05-09T07:01:02Z</time>
      </trkpt>
      <trkpt lat="44.05622" lon="4.83413">
        <ele>63</ele>
        <time>2012-05-09T07:01:11Z</time>
      </trkpt>
      <trkpt lat="44.05638" lon="4.83399">
        <ele>64</ele>
        <time>2012-05-09T07:01:16Z</time>
      </trkpt>
      <trkpt lat="44.05646" lon="4.83437">
        <ele>61</ele>
        <time>2012-05-09T07:01:25Z</time>
      </trkpt>
      <trkpt lat="44.05648" lon="4.83449">
        <ele>61</ele>
        <time>2012-05-09T07:01:27Z</time>
      </trkpt>
      <trkpt lat="44.0565" lon="4.83517">
        <ele>59</ele>
        <time>2012-05-09T07:01:38Z</time>
      </trkpt>
      <trkpt lat="44.05649" lon="4.83526">
        <ele>59</ele>
        <time>2012-05-09T07:01:43Z</time>
      </trkpt>
      <trkpt lat="44.05647" lon="4.83531">
        <ele>59</ele>
        <time>2012-05-09T07:01:48Z</time>
      </trkpt>
      <trkpt lat="44.05647" lon="4.83552">
        <ele>59</ele>
        <time>2012-05-09T07:01:54Z</time>
      </trkpt>
      <trkpt lat="44.05639" lon="4.83624">
        <ele>58</ele>
        <time>2012-05-09T07:02:08Z</time>
      </trkpt>
      <trkpt lat="44.05635" lon="4.8367">
        <ele>57</ele>
        <time>2012-05-09T07:02:15Z</time>
      </trkpt>
      <trkpt lat="44.0563" lon="4.83721">
        <ele>57</ele>
        <time>2012-05-09T07:02:23Z</time>
      </trkpt>
      <trkpt lat="44.0562" lon="4.83767">
        <ele>57</ele>
        <time>2012-05-09T07:02:30Z</time>
      </trkpt>
      <trkpt lat="44.0562" lon="4.83826">
        <ele>57</ele>
        <time>2012-05-09T07:02:41Z</time>
      </trkpt>
      <trkpt lat="44.05618" lon="4.83831">
        <ele>57</ele>
        <time>2012-05-09T07:02:43Z</time>
      </trkpt>
      <trkpt lat="44.05626" lon="4.83849">
        <ele>57</ele>
        <time>2012-05-09T07:03:17Z</time>
      </trkpt>
      <trkpt lat="44.05628" lon="4.83862">
        <ele>57</ele>
        <time>2012-05-09T07:03:20Z</time>
      </trkpt>
      <trkpt lat="44.05659" lon="4.83877">
        <ele>57</ele>
        <time>2012-05-09T07:03:31Z</time>
      </trkpt>
      <trkpt lat="44.0568" lon="4.8389">
        <ele>57</ele>
        <time>2012-05-09T07:03:38Z</time>
      </trkpt>
      <trkpt lat="44.0573" lon="4.83902">
        <ele>58</ele>
        <time>2012-05-09T07:03:53Z</time>
      </trkpt>
      <trkpt lat="44.05732" lon="4.83902">
        <ele>58</ele>
        <time>2012-05-09T07:03:54Z</time>
      </trkpt>
      <trkpt lat="44.05721" lon="4.83958">
        <ele>57</ele>
        <time>2012-05-09T07:04:08Z</time>
      </trkpt>
      <trkpt lat="44.05703" lon="4.84008">
        <ele>59</ele>
        <time>2012-05-09T07:04:19Z</time>
      </trkpt>
      <trkpt lat="44.05677" lon="4.84069">
        <ele>61</ele>
        <time>2012-05-09T07:04:35Z</time>
      </trkpt>
      <trkpt lat="44.05666" lon="4.84098">
        <ele>65</ele>
        <time>2012-05-09T07:04:44Z</time>
      </trkpt>
      <trkpt lat="44.05649" lon="4.84147">
        <ele>68</ele>
        <time>2012-05-09T07:05:01Z</time>
      </trkpt>
      <trkpt lat="44.05637" lon="4.84175">
        <ele>74</ele>
        <time>2012-05-09T07:05:12Z</time>
      </trkpt>
      <trkpt lat="44.05626" lon="4.84211">
        <ele>76</ele>
        <time>2012-05-09T07:05:26Z</time>
      </trkpt>
      <trkpt lat="44.05635" lon="4.8422">
        <ele>77</ele>
        <time>2012-05-09T07:05:32Z</time>
      </trkpt>
      <trkpt lat="44.05666" lon="4.84243">
        <ele>80</ele>
        <time>2012-05-09T07:05:51Z</time>
      </trkpt>
      <trkpt lat="44.05678" lon="4.84253">
        <ele>81</ele>
        <time>2012-05-09T07:05:59Z</time>
      </trkpt>
      <trkpt lat="44.05713" lon="4.84267">
        <ele>81</ele>
        <time>2012-05-09T07:06:19Z</time>
      </trkpt>
      <trkpt lat="44.05723" lon="4.84266">
        <ele>80</ele>
        <time>2012-05-09T07:06:26Z</time>
      </trkpt>
      <trkpt lat="44.05753" lon="4.8427">
        <ele>75</ele>
        <time>2012-05-09T07:06:37Z</time>
      </trkpt>
      <trkpt lat="44.05761" lon="4.84285">
        <ele>75</ele>
        <time>2012-05-09T07:06:43Z</time>
      </trkpt>
      <trkpt lat="44.05775" lon="4.84324">
        <ele>77</ele>
        <time>2012-05-09T07:06:56Z</time>
      </trkpt>
      <trkpt lat="44.0578" lon="4.84346">
        <ele>80</ele>
        <time>2012-05-09T07:07:03Z</time>
      </trkpt>
      <trkpt lat="44.05786" lon="4.84387">
        <ele>80</ele>
        <time>2012-05-09T07:07:16Z</time>
      </trkpt>
      <trkpt lat="44.05785" lon="4.84416">
        <ele>81</ele>
        <time>2012-05-09T07:07:25Z</time>
      </trkpt>
      <trkpt lat="44.05779" lon="4.84461">
        <ele>84</ele>
        <time>2012-05-09T07:07:39Z</time>
      </trkpt>
      <trkpt lat="44.05779" lon="4.84469">
        <ele>84</ele>
        <time>2012-05-09T07:07:42Z</time>
      </trkpt>
      <trkpt lat="44.05787" lon="4.84469">
        <ele>83</ele>
        <time>2012-05-09T07:07:48Z</time>
      </trkpt>
      <trkpt lat="44.05793" lon="4.8444">
        <ele>82</ele>
        <time>2012-05-09T07:07:54Z</time>
      </trkpt>
      <trkpt lat="44.05803" lon="4.84403">
        <ele>79</ele>
        <time>2012-05-09T07:08:02Z</time>
      </trkpt>
      <trkpt lat="44.05812" lon="4.84403">
        <ele>78</ele>
        <time>2012-05-09T07:08:05Z</time>
      </trkpt>
      <trkpt lat="44.05848" lon="4.84392">
        <ele>73</ele>
        <time>2012-05-09T07:08:14Z</time>
      </trkpt>
      <trkpt lat="44.05853" lon="4.84393">
        <ele>73</ele>
        <time>2012-05-09T07:08:18Z</time>
      </trkpt>
      <trkpt lat="44.05852" lon="4.84436">
        <ele>75</ele>
        <time>2012-05-09T07:08:48Z</time>
      </trkpt>
      <trkpt lat="44.0585" lon="4.84461">
        <ele>75</ele>
        <time>2012-05-09T07:08:56Z</time>
      </trkpt>
      <trkpt lat="44.05841" lon="4.8453">
        <ele>77</ele>
        <time>2012-05-09T07:09:16Z</time>
      </trkpt>
      <trkpt lat="44.05837" lon="4.84567">
        <ele>78</ele>
        <time>2012-05-09T07:09:26Z</time>
      </trkpt>
      <trkpt lat="44.05829" lon="4.8464">
        <ele>84</ele>
        <time>2012-05-09T07:09:46Z</time>
      </trkpt>
      <trkpt lat="44.05824" lon="4.84672">
        <ele>84</ele>
        <time>2012-05-09T07:09:55Z</time>
      </trkpt>
      <trkpt lat="44.05816" lon="4.84745">
        <ele>87</ele>
        <time>2012-05-09T07:10:15Z</time>
      </trkpt>
      <trkpt lat="44.05815" lon="4.84782">
        <ele>90</ele>
        <time>2012-05-09T07:10:25Z</time>
      </trkpt>
      <trkpt lat="44.05817" lon="4.84853">
        <ele>93</ele>
        <time>2012-05-09T07:10:43Z</time>
      </trkpt>
      <trkpt lat="44.05817" lon="4.84895">
        <ele>93</ele>
        <time>2012-05-09T07:10:54Z</time>
      </trkpt>
      <trkpt lat="44.05796" lon="4.84954">
        <ele>95</ele>
        <time>2012-05-09T07:11:12Z</time>
      </trkpt>
      <trkpt lat="44.05781" lon="4.84981">
        <ele>95</ele>
        <time>2012-05-09T07:11:21Z</time>
      </trkpt>
      <trkpt lat="44.05784" lon="4.84996">
        <ele>95</ele>
        <time>2012-05-09T07:11:26Z</time>
      </trkpt>
      <trkpt lat="44.05786" lon="4.84997">
        <ele>95</ele>
        <time>2012-05-09T07:11:27Z</time>
      </trkpt>
      <trkpt lat="44.05821" lon="4.85014">
        <ele>96</ele>
        <time>2012-05-09T07:11:41Z</time>
      </trkpt>
      <trkpt lat="44.05822" lon="4.85038">
        <ele>96</ele>
        <time>2012-05-09T07:11:47Z</time>
      </trkpt>
      <trkpt lat="44.0583" lon="4.85119">
        <ele>97</ele>
        <time>2012-05-09T07:12:06Z</time>
      </trkpt>
      <trkpt lat="44.05837" lon="4.85143">
        <ele>100</ele>
        <time>2012-05-09T07:12:13Z</time>
      </trkpt>
      <trkpt lat="44.05864" lon="4.85151">
        <ele>101</ele>
        <time>2012-05-09T07:12:25Z</time>
      </trkpt>
      <trkpt lat="44.05883" lon="4.85154">
        <ele>103</ele>
        <time>2012-05-09T07:12:33Z</time>
      </trkpt>
      <trkpt lat="44.05911" lon="4.85178">
        <ele>105</ele>
        <time>2012-05-09T07:12:47Z</time>
      </trkpt>
      <trkpt lat="44.05926" lon="4.85184">
        <ele>108</ele>
        <time>2012-05-09T07:12:54Z</time>
      </trkpt>
      <trkpt lat="44.05968" lon="4.85192">
        <ele>109</ele>
        <time>2012-05-09T07:13:14Z</time>
      </trkpt>
      <trkpt lat="44.0599" lon="4.85196">
        <ele>109</ele>
        <time>2012-05-09T07:13:24Z</time>
      </trkpt>
      <trkpt lat="44.05995" lon="4.85223">
        <ele>109</ele>
        <time>2012-05-09T07:13:35Z</time>
      </trkpt>
      <trkpt lat="44.05994" lon="4.8524">
        <ele>110</ele>
        <time>2012-05-09T07:13:42Z</time>
      </trkpt>
      <trkpt lat="44.05988" lon="4.85286">
        <ele>111</ele>
        <time>2012-05-09T07:13:57Z</time>
      </trkpt>
      <trkpt lat="44.05995" lon="4.85296">
        <ele>111</ele>
        <time>2012-05-09T07:14:02Z</time>
      </trkpt>
      <trkpt lat="44.06007" lon="4.85303">
        <ele>116</ele>
        <time>2012-05-09T07:14:09Z</time>
      </trkpt>
      <trkpt lat="44.06015" lon="4.85305">
        <ele>116</ele>
        <time>2012-05-09T07:14:17Z</time>
      </trkpt>
      <trkpt lat="44.06017" lon="4.85308">
        <ele>116</ele>
        <time>2012-05-09T07:14:24Z</time>
      </trkpt>
      <trkpt lat="44.06016" lon="4.85313">
        <ele>116</ele>
        <time>2012-05-09T07:14:30Z</time>
      </trkpt>
      <trkpt lat="44.06005" lon="4.85327">
        <ele>116</ele>
        <time>2012-05-09T07:14:56Z</time>
      </trkpt>
      <trkpt lat="44.05996" lon="4.85343">
        <ele>115</ele>
        <time>2012-05-09T07:15:04Z</time>
      </trkpt>
      <trkpt lat="44.0598" lon="4.85382">
        <ele>113</ele>
        <time>2012-05-09T07:15:20Z</time>
      </trkpt>
      <trkpt lat="44.05982" lon="4.85403">
        <ele>114</ele>
        <time>2012-05-09T07:15:26Z</time>
      </trkpt>
      <trkpt lat="44.0601" lon="4.85431">
        <ele>117</ele>
        <time>2012-05-09T07:15:39Z</time>
      </trkpt>
      <trkpt lat="44.06029" lon="4.85451">
        <ele>117</ele>
        <time>2012-05-09T07:15:48Z</time>
      </trkpt>
      <trkpt lat="44.06055" lon="4.85503">
        <ele>116</ele>
        <time>2012-05-09T07:16:06Z</time>
      </trkpt>
      <trkpt lat="44.06074" lon="4.8553">
        <ele>116</ele>
        <time>2012-05-09T07:16:16Z</time>
      </trkpt>
      <trkpt lat="44.06077" lon="4.85554">
        <ele>116</ele>
        <time>2012-05-09T07:16:23Z</time>
      </trkpt>
      <trkpt lat="44.06084" lon="4.85567">
        <ele>118</ele>
        <time>2012-05-09T07:16:27Z</time>
      </trkpt>
      <trkpt lat="44.06115" lon="4.85606">
        <ele>116</ele>
        <time>2012-05-09T07:16:41Z</time>
      </trkpt>
      <trkpt lat="44.0611" lon="4.85631">
        <ele>116</ele>
        <time>2012-05-09T07:16:46Z</time>
      </trkpt>
      <trkpt lat="44.06094" lon="4.85674">
        <ele>114</ele>
        <time>2012-05-09T07:16:54Z</time>
      </trkpt>
      <trkpt lat="44.06092" lon="4.85683">
        <ele>114</ele>
        <time>2012-05-09T07:16:56Z</time>
      </trkpt>
      <trkpt lat="44.06127" lon="4.85697">
        <ele>114</ele>
        <time>2012-05-09T07:17:10Z</time>
      </trkpt>
      <trkpt lat="44.06145" lon="4.85705">
        <ele>115</ele>
        <time>2012-05-09T07:17:17Z</time>
      </trkpt>
      <trkpt lat="44.06145" lon="4.8573">
        <ele>114</ele>
        <time>2012-05-09T07:17:24Z</time>
      </trkpt>
      <trkpt lat="44.06147" lon="4.85763">
        <ele>116</ele>
        <time>2012-05-09T07:17:33Z</time>
      </trkpt>
      <trkpt lat="44.06149" lon="4.8583">
        <ele>117</ele>
        <time>2012-05-09T07:17:51Z</time>
      </trkpt>
      <trkpt lat="44.06144" lon="4.85851">
        <ele>118</ele>
        <time>2012-05-09T07:17:57Z</time>
      </trkpt>
      <trkpt lat="44.06127" lon="4.85885">
        <ele>120</ele>
        <time>2012-05-09T07:18:10Z</time>
      </trkpt>
      <trkpt lat="44.06111" lon="4.85899">
        <ele>120</ele>
        <time>2012-05-09T07:18:19Z</time>
      </trkpt>
      <trkpt lat="44.06075" lon="4.85926">
        <ele>122</ele>
        <time>2012-05-09T07:18:37Z</time>
      </trkpt>
      <trkpt lat="44.06053" lon="4.85933">
        <ele>122</ele>
        <time>2012-05-09T07:18:44Z</time>
      </trkpt>
      <trkpt lat="44.05975" lon="4.85959">
        <ele>120</ele>
        <time>2012-05-09T07:19:03Z</time>
      </trkpt>
      <trkpt lat="44.05934" lon="4.85972">
        <ele>120</ele>
        <time>2012-05-09T07:19:12Z</time>
      </trkpt>
      <trkpt lat="44.05867" lon="4.85992">
        <ele>118</ele>
        <time>2012-05-09T07:19:27Z</time>
      </trkpt>
      <trkpt lat="44.05859" lon="4.85994">
        <ele>118</ele>
        <time>2012-05-09T07:19:29Z</time>
      </trkpt>
      <trkpt lat="44.05853" lon="4.86017">
        <ele>117</ele>
        <time>2012-05-09T07:19:34Z</time>
      </trkpt>
      <trkpt lat="44.05863" lon="4.86077">
        <ele>117</ele>
        <time>2012-05-09T07:19:44Z</time>
      </trkpt>
      <trkpt lat="44.05882" lon="4.86192">
        <ele>116</ele>
        <time>2012-05-09T07:20:02Z</time>
      </trkpt>
      <trkpt lat="44.05891" lon="4.8625">
        <ele>115</ele>
        <time>2012-05-09T07:20:11Z</time>
      </trkpt>
      <trkpt lat="44.05908" lon="4.86359">
        <ele>114</ele>
        <time>2012-05-09T07:20:28Z</time>
      </trkpt>
      <trkpt lat="44.05918" lon="4.86421">
        <ele>116</ele>
        <time>2012-05-09T07:20:38Z</time>
      </trkpt>
      <trkpt lat="44.05927" lon="4.86484">
        <ele>116</ele>
        <time>2012-05-09T07:20:50Z</time>
      </trkpt>
      <trkpt lat="44.05929" lon="4.86492">
        <ele>116</ele>
        <time>2012-05-09T07:20:55Z</time>
      </trkpt>
      <trkpt lat="44.05946" lon="4.86494">
        <ele>117</ele>
        <time>2012-05-09T07:21:55Z</time>
      </trkpt>
      <trkpt lat="44.05961" lon="4.86491">
        <ele>117</ele>
        <time>2012-05-09T07:22:02Z</time>
      </trkpt>
      <trkpt lat="44.06009" lon="4.86487">
        <ele>119</ele>
        <time>2012-05-09T07:22:21Z</time>
      </trkpt>
      <trkpt lat="44.06033" lon="4.86484">
        <ele>119</ele>
        <time>2012-05-09T07:22:30Z</time>
      </trkpt>
      <trkpt lat="44.0607" lon="4.86482">
        <ele>118</ele>
        <time>2012-05-09T07:22:42Z</time>
      </trkpt>
      <trkpt lat="44.06082" lon="4.86486">
        <ele>117</ele>
        <time>2012-05-09T07:22:45Z</time>
      </trkpt>
      <trkpt lat="44.06111" lon="4.86503">
        <ele>112</ele>
        <time>2012-05-09T07:22:52Z</time>
      </trkpt>
      <trkpt lat="44.06129" lon="4.86521">
        <ele>110</ele>
        <time>2012-05-09T07:22:58Z</time>
      </trkpt>
      <trkpt lat="44.06171" lon="4.86558">
        <ele>100</ele>
        <time>2012-05-09T07:23:11Z</time>
      </trkpt>
      <trkpt lat="44.0619" lon="4.86575">
        <ele>99</ele>
        <time>2012-05-09T07:23:17Z</time>
      </trkpt>
      <trkpt lat="44.06242" lon="4.86619">
        <ele>93</ele>
        <time>2012-05-09T07:23:30Z</time>
      </trkpt>
      <trkpt lat="44.0625" lon="4.86625">
        <ele>93</ele>
        <time>2012-05-09T07:23:32Z</time>
      </trkpt>
      <trkpt lat="44.06289" lon="4.86659">
        <ele>85</ele>
        <time>2012-05-09T07:23:42Z</time>
      </trkpt>
      <trkpt lat="44.06329" lon="4.86673">
        <ele>82</ele>
        <time>2012-05-09T07:23:48Z</time>
      </trkpt>
      <trkpt lat="44.06389" lon="4.867">
        <ele>80</ele>
        <time>2012-05-09T07:23:59Z</time>
      </trkpt>
      <trkpt lat="44.06392" lon="4.86702">
        <ele>80</ele>
        <time>2012-05-09T07:24:00Z</time>
      </trkpt>
      <trkpt lat="44.064" lon="4.86691">
        <ele>81</ele>
        <time>2012-05-09T07:24:06Z</time>
      </trkpt>
      <trkpt lat="44.06399" lon="4.86667">
        <ele>81</ele>
        <time>2012-05-09T07:24:13Z</time>
      </trkpt>
      <trkpt lat="44.06388" lon="4.86625">
        <ele>85</ele>
        <time>2012-05-09T07:24:26Z</time>
      </trkpt>
      <trkpt lat="44.06384" lon="4.86602">
        <ele>85</ele>
        <time>2012-05-09T07:24:33Z</time>
      </trkpt>
      <trkpt lat="44.06387" lon="4.86566">
        <ele>89</ele>
        <time>2012-05-09T07:24:46Z</time>
      </trkpt>
      <trkpt lat="44.06391" lon="4.86534">
        <ele>90</ele>
        <time>2012-05-09T07:24:57Z</time>
      </trkpt>
      <trkpt lat="44.06399" lon="4.86498">
        <ele>93</ele>
        <time>2012-05-09T07:25:13Z</time>
      </trkpt>
      <trkpt lat="44.064" lon="4.86494">
        <ele>93</ele>
        <time>2012-05-09T07:25:15Z</time>
      </trkpt>
      <trkpt lat="44.06405" lon="4.86489">
        <ele>93</ele>
        <time>2012-05-09T07:25:25Z</time>
      </trkpt>
      <trkpt lat="44.06412" lon="4.8649">
        <ele>93</ele>
        <time>2012-05-09T07:25:33Z</time>
      </trkpt>
      <trkpt lat="44.06427" lon="4.86485">
        <ele>95</ele>
        <time>2012-05-09T07:25:48Z</time>
      </trkpt>
      <trkpt lat="44.06436" lon="4.86482">
        <ele>95</ele>
        <time>2012-05-09T07:25:55Z</time>
      </trkpt>
      <trkpt lat="44.06452" lon="4.86476">
        <ele>96</ele>
        <time>2012-05-09T07:26:07Z</time>
      </trkpt>
      <trkpt lat="44.06463" lon="4.8647">
        <ele>96</ele>
        <time>2012-05-09T07:26:13Z</time>
      </trkpt>
      <trkpt lat="44.06486" lon="4.86448">
        <ele>96</ele>
        <time>2012-05-09T07:26:27Z</time>
      </trkpt>
      <trkpt lat="44.06501" lon="4.86443">
        <ele>97</ele>
        <time>2012-05-09T07:26:34Z</time>
      </trkpt>
      <trkpt lat="44.0654" lon="4.86443">
        <ele>98</ele>
        <time>2012-05-09T07:26:50Z</time>
      </trkpt>
      <trkpt lat="44.06548" lon="4.86444">
        <ele>98</ele>
        <time>2012-05-09T07:26:54Z</time>
      </trkpt>
      <trkpt lat="44.06566" lon="4.86476">
        <ele>97</ele>
        <time>2012-05-09T07:27:07Z</time>
      </trkpt>
      <trkpt lat="44.06572" lon="4.86489">
        <ele>97</ele>
        <time>2012-05-09T07:27:13Z</time>
      </trkpt>
      <trkpt lat="44.06571" lon="4.86493">
        <ele>97</ele>
        <time>2012-05-09T07:27:21Z</time>
      </trkpt>
      <trkpt lat="44.06566" lon="4.86499">
        <ele>97</ele>
        <time>2012-05-09T07:27:28Z</time>
      </trkpt>
      <trkpt lat="44.0656" lon="4.86515">
        <ele>96</ele>
        <time>2012-05-09T07:27:41Z</time>
      </trkpt>
      <trkpt lat="44.06557" lon="4.8652">
        <ele>96</ele>
        <time>2012-05-09T07:27:46Z</time>
      </trkpt>
      <trkpt lat="44.06545" lon="4.86508">
        <ele>97</ele>
        <time>2012-05-09T07:27:57Z</time>
      </trkpt>
      <trkpt lat="44.06544" lon="4.86506">
        <ele>97</ele>
        <time>2012-05-09T07:27:59Z</time>
      </trkpt>
      <trkpt lat="44.06541" lon="4.86494">
        <ele>98</ele>
        <time>2012-05-09T07:28:07Z</time>
      </trkpt>
      <trkpt lat="44.0654" lon="4.86487">
        <ele>98</ele>
        <time>2012-05-09T07:28:11Z</time>
      </trkpt>
      <trkpt lat="44.06527" lon="4.86484">
        <ele>98</ele>
        <time>2012-05-09T07:28:20Z</time>
      </trkpt>
      <trkpt lat="44.0652" lon="4.86479">
        <ele>98</ele>
        <time>2012-05-09T07:28:25Z</time>
      </trkpt>
      <trkpt lat="44.065" lon="4.86489">
        <ele>99</ele>
        <time>2012-05-09T07:28:35Z</time>
      </trkpt>
      <trkpt lat="44.0649" lon="4.86498">
        <ele>98</ele>
        <time>2012-05-09T07:28:40Z</time>
      </trkpt>
      <trkpt lat="44.06476" lon="4.86515">
        <ele>97</ele>
        <time>2012-05-09T07:28:51Z</time>
      </trkpt>
      <trkpt lat="44.06471" lon="4.8652">
        <ele>96</ele>
        <time>2012-05-09T07:29:03Z</time>
      </trkpt>
      <trkpt lat="44.06472" lon="4.86528">
        <ele>96</ele>
        <time>2012-05-09T07:29:10Z</time>
      </trkpt>
      <trkpt lat="44.06469" lon="4.8654">
        <ele>95</ele>
        <time>2012-05-09T07:29:36Z</time>
      </trkpt>
      <trkpt lat="44.06455" lon="4.86533">
        <ele>95</ele>
        <time>2012-05-09T07:29:46Z</time>
      </trkpt>
      <trkpt lat="44.06445" lon="4.8653">
        <ele>95</ele>
        <time>2012-05-09T07:29:51Z</time>
      </trkpt>
      <trkpt lat="44.06439" lon="4.86515">
        <ele>95</ele>
        <time>2012-05-09T07:30:00Z</time>
      </trkpt>
      <trkpt lat="44.06439" lon="4.86514">
        <ele>95</ele>
        <time>2012-05-09T07:30:02Z</time>
      </trkpt>
      <trkpt lat="44.06443" lon="4.86499">
        <ele>95</ele>
        <time>2012-05-09T07:30:15Z</time>
      </trkpt>
      <trkpt lat="44.0644" lon="4.86495">
        <ele>95</ele>
        <time>2012-05-09T07:30:20Z</time>
      </trkpt>
      <trkpt lat="44.06435" lon="4.86497">
        <ele>95</ele>
        <time>2012-05-09T07:30:29Z</time>
      </trkpt>
      <trkpt lat="44.06433" lon="4.86497">
        <ele>95</ele>
        <time>2012-05-09T07:30:32Z</time>
      </trkpt>
      <trkpt lat="44.06423" lon="4.86498">
        <ele>94</ele>
        <time>2012-05-09T07:30:45Z</time>
      </trkpt>
      <trkpt lat="44.06421" lon="4.865">
        <ele>94</ele>
        <time>2012-05-09T07:30:47Z</time>
      </trkpt>
      <trkpt lat="44.06412" lon="4.86515">
        <ele>92</ele>
        <time>2012-05-09T07:30:59Z</time>
      </trkpt>
      <trkpt lat="44.0641" lon="4.86524">
        <ele>91</ele>
        <time>2012-05-09T07:31:03Z</time>
      </trkpt>
      <trkpt lat="44.06413" lon="4.86553">
        <ele>90</ele>
        <time>2012-05-09T07:31:12Z</time>
      </trkpt>
      <trkpt lat="44.06414" lon="4.86553">
        <ele>90</ele>
        <time>2012-05-09T07:31:13Z</time>
      </trkpt>
      <trkpt lat="44.06425" lon="4.86562">
        <ele>93</ele>
        <time>2012-05-09T07:31:22Z</time>
      </trkpt>
      <trkpt lat="44.06427" lon="4.86563">
        <ele>93</ele>
        <time>2012-05-09T07:31:23Z</time>
      </trkpt>
      <trkpt lat="44.06438" lon="4.86566">
        <ele>93</ele>
        <time>2012-05-09T07:31:31Z</time>
      </trkpt>
      <trkpt lat="44.06445" lon="4.86571">
        <ele>94</ele>
        <time>2012-05-09T07:31:36Z</time>
      </trkpt>
      <trkpt lat="44.06452" lon="4.86598">
        <ele>89</ele>
        <time>2012-05-09T07:31:45Z</time>
      </trkpt>
      <trkpt lat="44.0646" lon="4.86599">
        <ele>90</ele>
        <time>2012-05-09T07:31:49Z</time>
      </trkpt>
      <trkpt lat="44.06467" lon="4.86595">
        <ele>90</ele>
        <time>2012-05-09T07:31:55Z</time>
      </trkpt>
      <trkpt lat="44.06468" lon="4.86593">
        <ele>90</ele>
        <time>2012-05-09T07:31:59Z</time>
      </trkpt>
      <trkpt lat="44.06472" lon="4.8658">
        <ele>95</ele>
        <time>2012-05-09T07:32:11Z</time>
      </trkpt>
      <trkpt lat="44.06475" lon="4.86577">
        <ele>95</ele>
        <time>2012-05-09T07:32:13Z</time>
      </trkpt>
      <trkpt lat="44.06492" lon="4.86592">
        <ele>93</ele>
        <time>2012-05-09T07:32:24Z</time>
      </trkpt>
      <trkpt lat="44.06494" lon="4.86606">
        <ele>91</ele>
        <time>2012-05-09T07:32:29Z</time>
      </trkpt>
      <trkpt lat="44.06496" lon="4.86619">
        <ele>90</ele>
        <time>2012-05-09T07:32:33Z</time>
      </trkpt>
      <trkpt lat="44.06506" lon="4.86622">
        <ele>90</ele>
        <time>2012-05-09T07:32:38Z</time>
      </trkpt>
      <trkpt lat="44.06527" lon="4.86624">
        <ele>90</ele>
        <time>2012-05-09T07:32:45Z</time>
      </trkpt>
      <trkpt lat="44.06539" lon="4.86629">
        <ele>89</ele>
        <time>2012-05-09T07:32:53Z</time>
      </trkpt>
      <trkpt lat="44.06547" lon="4.86645">
        <ele>88</ele>
        <time>2012-05-09T07:33:16Z</time>
      </trkpt>
      <trkpt lat="44.06552" lon="4.86647">
        <ele>88</ele>
        <time>2012-05-09T07:33:18Z</time>
      </trkpt>
      <trkpt lat="44.06564" lon="4.86644">
        <ele>88</ele>
        <time>2012-05-09T07:33:54Z</time>
      </trkpt>
      <trkpt lat="44.06564" lon="4.86635">
        <ele>88</ele>
        <time>2012-05-09T07:33:58Z</time>
      </trkpt>
      <trkpt lat="44.06556" lon="4.86614">
        <ele>90</ele>
        <time>2012-05-09T07:34:11Z</time>
      </trkpt>
      <trkpt lat="44.06554" lon="4.8661">
        <ele>90</ele>
        <time>2012-05-09T07:34:15Z</time>
      </trkpt>
      <trkpt lat="44.06552" lon="4.86597">
        <ele>90</ele>
        <time>2012-05-09T07:34:24Z</time>
      </trkpt>
      <trkpt lat="44.0655" lon="4.86593">
        <ele>91</ele>
        <time>2012-05-09T07:34:27Z</time>
      </trkpt>
      <trkpt lat="44.06547" lon="4.86579">
        <ele>95</ele>
        <time>2012-05-09T07:34:37Z</time>
      </trkpt>
      <trkpt lat="44.06544" lon="4.86571">
        <ele>95</ele>
        <time>2012-05-09T07:34:40Z</time>
      </trkpt>
      <trkpt lat="44.06549" lon="4.86561">
        <ele>95</ele>
        <time>2012-05-09T07:34:48Z</time>
      </trkpt>
      <trkpt lat="44.06561" lon="4.86542">
        <ele>96</ele>
        <time>2012-05-09T07:34:54Z</time>
      </trkpt>
      <trkpt lat="44.06563" lon="4.8653">
        <ele>96</ele>
        <time>2012-05-09T07:34:59Z</time>
      </trkpt>
      <trkpt lat="44.06562" lon="4.86522">
        <ele>96</ele>
        <time>2012-05-09T07:35:05Z</time>
      </trkpt>
      <trkpt lat="44.06566" lon="4.86516">
        <ele>96</ele>
        <time>2012-05-09T07:35:16Z</time>
      </trkpt>
      <trkpt lat="44.06571" lon="4.86507">
        <ele>96</ele>
        <time>2012-05-09T07:35:23Z</time>
      </trkpt>
      <trkpt lat="44.06584" lon="4.86513">
        <ele>95</ele>
        <time>2012-05-09T07:35:35Z</time>
      </trkpt>
      <trkpt lat="44.06595" lon="4.86528">
        <ele>94</ele>
        <time>2012-05-09T07:35:43Z</time>
      </trkpt>
      <trkpt lat="44.06617" lon="4.86575">
        <ele>92</ele>
        <time>2012-05-09T07:35:56Z</time>
      </trkpt>
      <trkpt lat="44.06634" lon="4.86611">
        <ele>86</ele>
        <time>2012-05-09T07:36:03Z</time>
      </trkpt>
      <trkpt lat="44.06656" lon="4.86669">
        <ele>80</ele>
        <time>2012-05-09T07:36:14Z</time>
      </trkpt>
      <trkpt lat="44.0666" lon="4.86685">
        <ele>80</ele>
        <time>2012-05-09T07:36:18Z</time>
      </trkpt>
      <trkpt lat="44.06668" lon="4.86677">
        <ele>77</ele>
        <time>2012-05-09T07:36:26Z</time>
      </trkpt>
      <trkpt lat="44.06668" lon="4.86677">
        <ele>77</ele>
        <time>2012-05-09T07:36:27Z</time>
      </trkpt>
      <trkpt lat="44.06679" lon="4.86659">
        <ele>78</ele>
        <time>2012-05-09T07:36:55Z</time>
      </trkpt>
      <trkpt lat="44.06686" lon="4.8664">
        <ele>78</ele>
        <time>2012-05-09T07:37:03Z</time>
      </trkpt>
      <trkpt lat="44.06705" lon="4.8663">
        <ele>77</ele>
        <time>2012-05-09T07:37:14Z</time>
      </trkpt>
      <trkpt lat="44.06701" lon="4.86643">
        <ele>77</ele>
        <time>2012-05-09T07:37:18Z</time>
      </trkpt>
      <trkpt lat="44.06689" lon="4.86659">
        <ele>78</ele>
        <time>2012-05-09T07:37:27Z</time>
      </trkpt>
      <trkpt lat="44.06684" lon="4.86671">
        <ele>76</ele>
        <time>2012-05-09T07:39:08Z</time>
      </trkpt>
      <trkpt lat="44.06682" lon="4.86681">
        <ele>75</ele>
        <time>2012-05-09T07:39:35Z</time>
      </trkpt>
      <trkpt lat="44.06691" lon="4.86682">
        <ele>74</ele>
        <time>2012-05-09T07:39:40Z</time>
      </trkpt>
      <trkpt lat="44.06721" lon="4.86657">
        <ele>74</ele>
        <time>2012-05-09T07:39:50Z</time>
      </trkpt>
      <trkpt lat="44.06732" lon="4.86645">
        <ele>73</ele>
        <time>2012-05-09T07:39:55Z</time>
      </trkpt>
      <trkpt lat="44.0675" lon="4.86621">
        <ele>74</ele>
        <time>2012-05-09T07:40:04Z</time>
      </trkpt>
      <trkpt lat="44.06761" lon="4.86614">
        <ele>66</ele>
        <time>2012-05-09T07:40:08Z</time>
      </trkpt>
      <trkpt lat="44.06783" lon="4.86596">
        <ele>65</ele>
        <time>2012-05-09T07:40:17Z</time>
      </trkpt>
      <trkpt lat="44.06793" lon="4.86592">
        <ele>64</ele>
        <time>2012-05-09T07:40:20Z</time>
      </trkpt>
      <trkpt lat="44.06811" lon="4.86582">
        <ele>67</ele>
        <time>2012-05-09T07:40:28Z</time>
      </trkpt>
      <trkpt lat="44.06823" lon="4.86574">
        <ele>65</ele>
        <time>2012-05-09T07:40:33Z</time>
      </trkpt>
      <trkpt lat="44.06844" lon="4.86553">
        <ele>58</ele>
        <time>2012-05-09T07:40:41Z</time>
      </trkpt>
      <trkpt lat="44.06851" lon="4.86539">
        <ele>59</ele>
        <time>2012-05-09T07:40:46Z</time>
      </trkpt>
      <trkpt lat="44.0686" lon="4.86525">
        <ele>60</ele>
        <time>2012-05-09T07:40:52Z</time>
      </trkpt>
      <trkpt lat="44.06866" lon="4.86508">
        <ele>60</ele>
        <time>2012-05-09T07:40:58Z</time>
      </trkpt>
      <trkpt lat="44.06881" lon="4.86479">
        <ele>65</ele>
        <time>2012-05-09T07:41:07Z</time>
      </trkpt>
      <trkpt lat="44.06889" lon="4.86459">
        <ele>65</ele>
        <time>2012-05-09T07:41:14Z</time>
      </trkpt>
      <trkpt lat="44.06895" lon="4.86449">
        <ele>65</ele>
        <time>2012-05-09T07:41:20Z</time>
      </trkpt>
      <trkpt lat="44.06907" lon="4.86442">
        <ele>64</ele>
        <time>2012-05-09T07:42:05Z</time>
      </trkpt>
      <trkpt lat="44.06914" lon="4.86429">
        <ele>63</ele>
        <time>2012-05-09T07:42:12Z</time>
      </trkpt>
      <trkpt lat="44.06929" lon="4.86424">
        <ele>56</ele>
        <time>2012-05-09T07:42:17Z</time>
      </trkpt>
      <trkpt lat="44.06951" lon="4.86419">
        <ele>53</ele>
        <time>2012-05-09T07:42:27Z</time>
      </trkpt>
      <trkpt lat="44.06954" lon="4.86419">
        <ele>53</ele>
        <time>2012-05-09T07:42:29Z</time>
      </trkpt>
      <trkpt lat="44.06976" lon="4.86428">
        <ele>51</ele>
        <time>2012-05-09T07:42:36Z</time>
      </trkpt>
      <trkpt lat="44.06987" lon="4.86453">
        <ele>50</ele>
        <time>2012-05-09T07:42:41Z</time>
      </trkpt>
      <trkpt lat="44.07" lon="4.86475">
        <ele>46</ele>
        <time>2012-05-09T07:42:46Z</time>
      </trkpt>
      <trkpt lat="44.0701" lon="4.86521">
        <ele>43</ele>
        <time>2012-05-09T07:42:54Z</time>
      </trkpt>
      <trkpt lat="44.07009" lon="4.86608">
        <ele>41</ele>
        <time>2012-05-09T07:43:10Z</time>
      </trkpt>
      <trkpt lat="44.07013" lon="4.86644">
        <ele>40</ele>
        <time>2012-05-09T07:43:17Z</time>
      </trkpt>
      <trkpt lat="44.07019" lon="4.86689">
        <ele>40</ele>
        <time>2012-05-09T07:43:26Z</time>
      </trkpt>
      <trkpt lat="44.07015" lon="4.86704">
        <ele>40</ele>
        <time>2012-05-09T07:43:30Z</time>
      </trkpt>
      <trkpt lat="44.07012" lon="4.86762">
        <ele>41</ele>
        <time>2012-05-09T07:43:40Z</time>
      </trkpt>
      <trkpt lat="44.07021" lon="4.86824">
        <ele>42</ele>
        <time>2012-05-09T07:43:50Z</time>
      </trkpt>
      <trkpt lat="44.07049" lon="4.86942">
        <ele>45</ele>
        <time>2012-05-09T07:44:09Z</time>
      </trkpt>
      <trkpt lat="44.07055" lon="4.86959">
        <ele>46</ele>
        <time>2012-05-09T07:44:12Z</time>
      </trkpt>
      <trkpt lat="44.07078" lon="4.86991">
        <ele>45</ele>
        <time>2012-05-09T07:44:19Z</time>
      </trkpt>
      <trkpt lat="44.07099" lon="4.87003">
        <ele>44</ele>
        <time>2012-05-09T07:44:24Z</time>
      </trkpt>
      <trkpt lat="44.07134" lon="4.87002">
        <ele>43</ele>
        <time>2012-05-09T07:44:31Z</time>
      </trkpt>
      <trkpt lat="44.07155" lon="4.86988">
        <ele>42</ele>
        <time>2012-05-09T07:44:35Z</time>
      </trkpt>
      <trkpt lat="44.07222" lon="4.87004">
        <ele>40</ele>
        <time>2012-05-09T07:44:48Z</time>
      </trkpt>
      <trkpt lat="44.07237" lon="4.8701">
        <ele>40</ele>
        <time>2012-05-09T07:44:51Z</time>
      </trkpt>
      <trkpt lat="44.07281" lon="4.87">
        <ele>41</ele>
        <time>2012-05-09T07:45:00Z</time>
      </trkpt>
      <trkpt lat="44.07305" lon="4.86976">
        <ele>39</ele>
        <time>2012-05-09T07:45:06Z</time>
      </trkpt>
      <trkpt lat="44.07373" lon="4.86908">
        <ele>39</ele>
        <time>2012-05-09T07:45:23Z</time>
      </trkpt>
      <trkpt lat="44.07399" lon="4.86879">
        <ele>39</ele>
        <time>2012-05-09T07:45:30Z</time>
      </trkpt>
      <trkpt lat="44.07418" lon="4.86809">
        <ele>39</ele>
        <time>2012-05-09T07:45:41Z</time>
      </trkpt>
      <trkpt lat="44.07417" lon="4.86767">
        <ele>40</ele>
        <time>2012-05-09T07:45:47Z</time>
      </trkpt>
      <trkpt lat="44.07419" lon="4.86657">
        <ele>43</ele>
        <time>2012-05-09T07:46:04Z</time>
      </trkpt>
      <trkpt lat="44.07418" lon="4.86632">
        <ele>44</ele>
        <time>2012-05-09T07:46:10Z</time>
      </trkpt>
      <trkpt lat="44.07416" lon="4.86626">
        <ele>41</ele>
        <time>2012-05-09T07:46:31Z</time>
      </trkpt>
      <trkpt lat="44.07417" lon="4.86624">
        <ele>44</ele>
        <time>2012-05-09T07:46:32Z</time>
      </trkpt>
      <trkpt lat="44.07439" lon="4.86661">
        <ele>44</ele>
        <time>2012-05-09T07:46:46Z</time>
      </trkpt>
      <trkpt lat="44.07452" lon="4.86685">
        <ele>43</ele>
        <time>2012-05-09T07:46:53Z</time>
      </trkpt>
      <trkpt lat="44.07484" lon="4.86682">
        <ele>44</ele>
        <time>2012-05-09T07:47:05Z</time>
      </trkpt>
      <trkpt lat="44.07502" lon="4.86676">
        <ele>46</ele>
        <time>2012-05-09T07:47:12Z</time>
      </trkpt>
      <trkpt lat="44.07526" lon="4.86673">
        <ele>46</ele>
        <time>2012-05-09T07:47:25Z</time>
      </trkpt>
      <trkpt lat="44.07538" lon="4.86689">
        <ele>47</ele>
        <time>2012-05-09T07:47:33Z</time>
      </trkpt>
      <trkpt lat="44.07555" lon="4.86718">
        <ele>46</ele>
        <time>2012-05-09T07:47:47Z</time>
      </trkpt>
      <trkpt lat="44.0756" lon="4.86713">
        <ele>46</ele>
        <time>2012-05-09T07:47:52Z</time>
      </trkpt>
      <trkpt lat="44.07547" lon="4.86696">
        <ele>47</ele>
        <time>2012-05-09T07:48:01Z</time>
      </trkpt>
      <trkpt lat="44.07536" lon="4.86672">
        <ele>47</ele>
        <time>2012-05-09T07:48:09Z</time>
      </trkpt>
      <trkpt lat="44.07511" lon="4.86616">
        <ele>49</ele>
        <time>2012-05-09T07:48:22Z</time>
      </trkpt>
      <trkpt lat="44.07508" lon="4.86611">
        <ele>49</ele>
        <time>2012-05-09T07:48:25Z</time>
      </trkpt>
      <trkpt lat="44.07514" lon="4.86599">
        <ele>49</ele>
        <time>2012-05-09T07:48:31Z</time>
      </trkpt>
      <trkpt lat="44.07523" lon="4.86589">
        <ele>49</ele>
        <time>2012-05-09T07:48:36Z</time>
      </trkpt>
      <trkpt lat="44.07516" lon="4.86577">
        <ele>51</ele>
        <time>2012-05-09T07:48:42Z</time>
      </trkpt>
      <trkpt lat="44.07494" lon="4.86567">
        <ele>49</ele>
        <time>2012-05-09T07:48:49Z</time>
      </trkpt>
      <trkpt lat="44.07462" lon="4.86539">
        <ele>49</ele>
        <time>2012-05-09T07:49:02Z</time>
      </trkpt>
      <trkpt lat="44.0745" lon="4.86541">
        <ele>49</ele>
        <time>2012-05-09T07:49:07Z</time>
      </trkpt>
      <trkpt lat="44.07441" lon="4.86533">
        <ele>49</ele>
        <time>2012-05-09T07:49:20Z</time>
      </trkpt>
      <trkpt lat="44.07441" lon="4.86533">
        <ele>49</ele>
        <time>2012-05-09T07:49:22Z</time>
      </trkpt>
      <trkpt lat="44.07433" lon="4.86521">
        <ele>49</ele>
        <time>2012-05-09T07:52:24Z</time>
      </trkpt>
      <trkpt lat="44.07434" lon="4.86519">
        <ele>49</ele>
        <time>2012-05-09T07:52:28Z</time>
      </trkpt>
      <trkpt lat="44.07436" lon="4.86508">
        <ele>50</ele>
        <time>2012-05-09T07:52:39Z</time>
      </trkpt>
      <trkpt lat="44.07436" lon="4.86505">
        <ele>50</ele>
        <time>2012-05-09T07:52:41Z</time>
      </trkpt>
      <trkpt lat="44.0742" lon="4.86493">
        <ele>51</ele>
        <time>2012-05-09T07:52:52Z</time>
      </trkpt>
      <trkpt lat="44.0741" lon="4.86476">
        <ele>50</ele>
        <time>2012-05-09T07:52:58Z</time>
      </trkpt>
      <trkpt lat="44.07402" lon="4.86465">
        <ele>51</ele>
        <time>2012-05-09T07:53:06Z</time>
      </trkpt>
      <trkpt lat="44.07397" lon="4.8645">
        <ele>51</ele>
        <time>2012-05-09T07:53:11Z</time>
      </trkpt>
      <trkpt lat="44.07392" lon="4.86439">
        <ele>52</ele>
        <time>2012-05-09T07:53:17Z</time>
      </trkpt>
      <trkpt lat="44.07387" lon="4.86428">
        <ele>52</ele>
        <time>2012-05-09T07:53:24Z</time>
      </trkpt>
      <trkpt lat="44.07375" lon="4.86414">
        <ele>54</ele>
        <time>2012-05-09T07:53:35Z</time>
      </trkpt>
      <trkpt lat="44.07368" lon="4.86409">
        <ele>53</ele>
        <time>2012-05-09T07:53:39Z</time>
      </trkpt>
      <trkpt lat="44.07353" lon="4.86396">
        <ele>53</ele>
        <time>2012-05-09T07:53:49Z</time>
      </trkpt>
      <trkpt lat="44.07346" lon="4.86383">
        <ele>53</ele>
        <time>2012-05-09T07:53:55Z</time>
      </trkpt>
      <trkpt lat="44.07336" lon="4.86371">
        <ele>53</ele>
        <time>2012-05-09T07:54:05Z</time>
      </trkpt>
      <trkpt lat="44.07338" lon="4.86367">
        <ele>53</ele>
        <time>2012-05-09T07:54:08Z</time>
      </trkpt>
      <trkpt lat="44.07346" lon="4.86373">
        <ele>53</ele>
        <time>2012-05-09T07:54:14Z</time>
      </trkpt>
      <trkpt lat="44.07351" lon="4.86384">
        <ele>53</ele>
        <time>2012-05-09T07:54:19Z</time>
      </trkpt>
      <trkpt lat="44.07363" lon="4.86382">
        <ele>53</ele>
        <time>2012-05-09T07:54:26Z</time>
      </trkpt>
      <trkpt lat="44.0737" lon="4.86377">
        <ele>54</ele>
        <time>2012-05-09T07:54:30Z</time>
      </trkpt>
      <trkpt lat="44.07362" lon="4.86371">
        <ele>54</ele>
        <time>2012-05-09T07:54:36Z</time>
      </trkpt>
      <trkpt lat="44.07357" lon="4.86373">
        <ele>54</ele>
        <time>2012-05-09T07:54:39Z</time>
      </trkpt>
      <trkpt lat="44.0735" lon="4.86369">
        <ele>53</ele>
        <time>2012-05-09T07:54:47Z</time>
      </trkpt>
      <trkpt lat="44.07346" lon="4.86367">
        <ele>54</ele>
        <time>2012-05-09T07:54:51Z</time>
      </trkpt>
      <trkpt lat="44.07346" lon="4.86352">
        <ele>54</ele>
        <time>2012-05-09T07:55:02Z</time>
      </trkpt>
      <trkpt lat="44.07356" lon="4.86355">
        <ele>54</ele>
        <time>2012-05-09T07:55:06Z</time>
      </trkpt>
      <trkpt lat="44.0737" lon="4.86352">
        <ele>54</ele>
        <time>2012-05-09T07:55:14Z</time>
      </trkpt>
      <trkpt lat="44.07368" lon="4.86347">
        <ele>54</ele>
        <time>2012-05-09T07:55:18Z</time>
      </trkpt>
      <trkpt lat="44.07364" lon="4.86333">
        <ele>54</ele>
        <time>2012-05-09T07:55:39Z</time>
      </trkpt>
      <trkpt lat="44.07356" lon="4.86327">
        <ele>53</ele>
        <time>2012-05-09T07:55:43Z</time>
      </trkpt>
      <trkpt lat="44.07328" lon="4.86344">
        <ele>53</ele>
        <time>2012-05-09T07:55:54Z</time>
      </trkpt>
      <trkpt lat="44.07314" lon="4.86365">
        <ele>52</ele>
        <time>2012-05-09T07:56:01Z</time>
      </trkpt>
      <trkpt lat="44.07292" lon="4.86364">
        <ele>52</ele>
        <time>2012-05-09T07:56:09Z</time>
      </trkpt>
      <trkpt lat="44.07275" lon="4.86363">
        <ele>52</ele>
        <time>2012-05-09T07:56:14Z</time>
      </trkpt>
      <trkpt lat="44.07249" lon="4.8636">
        <ele>53</ele>
        <time>2012-05-09T07:56:23Z</time>
      </trkpt>
      <trkpt lat="44.07235" lon="4.8636">
        <ele>53</ele>
        <time>2012-05-09T07:56:28Z</time>
      </trkpt>
      <trkpt lat="44.07211" lon="4.86362">
        <ele>53</ele>
        <time>2012-05-09T07:56:40Z</time>
      </trkpt>
      <trkpt lat="44.07202" lon="4.86363">
        <ele>53</ele>
        <time>2012-05-09T07:56:46Z</time>
      </trkpt>
      <trkpt lat="44.07176" lon="4.86363">
        <ele>54</ele>
        <time>2012-05-09T07:57:00Z</time>
      </trkpt>
      <trkpt lat="44.07168" lon="4.86359">
        <ele>55</ele>
        <time>2012-05-09T07:57:06Z</time>
      </trkpt>
      <trkpt lat="44.07157" lon="4.86353">
        <ele>55</ele>
        <time>2012-05-09T07:57:13Z</time>
      </trkpt>
      <trkpt lat="44.07165" lon="4.86344">
        <ele>57</ele>
        <time>2012-05-09T07:57:21Z</time>
      </trkpt>
      <trkpt lat="44.0717" lon="4.8635">
        <ele>56</ele>
        <time>2012-05-09T07:57:26Z</time>
      </trkpt>
      <trkpt lat="44.07174" lon="4.86349">
        <ele>56</ele>
        <time>2012-05-09T07:57:29Z</time>
      </trkpt>
      <trkpt lat="44.07193" lon="4.86342">
        <ele>55</ele>
        <time>2012-05-09T07:57:41Z</time>
      </trkpt>
      <trkpt lat="44.07196" lon="4.86341">
        <ele>55</ele>
        <time>2012-05-09T07:57:42Z</time>
      </trkpt>
      <trkpt lat="44.07224" lon="4.86338">
        <ele>54</ele>
        <time>2012-05-09T07:57:53Z</time>
      </trkpt>
      <trkpt lat="44.07236" lon="4.86338">
        <ele>54</ele>
        <time>2012-05-09T07:57:58Z</time>
      </trkpt>
      <trkpt lat="44.07246" lon="4.86331">
        <ele>56</ele>
        <time>2012-05-09T07:58:04Z</time>
      </trkpt>
      <trkpt lat="44.07255" lon="4.86323">
        <ele>55</ele>
        <time>2012-05-09T07:58:09Z</time>
      </trkpt>
      <trkpt lat="44.0726" lon="4.8631">
        <ele>55</ele>
        <time>2012-05-09T07:58:18Z</time>
      </trkpt>
      <trkpt lat="44.07256" lon="4.86309">
        <ele>55</ele>
        <time>2012-05-09T07:58:23Z</time>
      </trkpt>
      <trkpt lat="44.07247" lon="4.86306">
        <ele>57</ele>
        <time>2012-05-09T07:58:29Z</time>
      </trkpt>
      <trkpt lat="44.07234" lon="4.86311">
        <ele>57</ele>
        <time>2012-05-09T07:58:35Z</time>
      </trkpt>
      <trkpt lat="44.07211" lon="4.86319">
        <ele>57</ele>
        <time>2012-05-09T07:58:45Z</time>
      </trkpt>
      <trkpt lat="44.07193" lon="4.86319">
        <ele>58</ele>
        <time>2012-05-09T07:58:50Z</time>
      </trkpt>
      <trkpt lat="44.07171" lon="4.86328">
        <ele>59</ele>
        <time>2012-05-09T07:58:57Z</time>
      </trkpt>
      <trkpt lat="44.07159" lon="4.86332">
        <ele>59</ele>
        <time>2012-05-09T07:59:01Z</time>
      </trkpt>
      <trkpt lat="44.0714" lon="4.86336">
        <ele>55</ele>
        <time>2012-05-09T07:59:08Z</time>
      </trkpt>
      <trkpt lat="44.07137" lon="4.86347">
        <ele>55</ele>
        <time>2012-05-09T07:59:13Z</time>
      </trkpt>
      <trkpt lat="44.07147" lon="4.86356">
        <ele>55</ele>
        <time>2012-05-09T07:59:20Z</time>
      </trkpt>
      <trkpt lat="44.0715" lon="4.86368">
        <ele>54</ele>
        <time>2012-05-09T07:59:24Z</time>
      </trkpt>
      <trkpt lat="44.07159" lon="4.86385">
        <ele>52</ele>
        <time>2012-05-09T07:59:33Z</time>
      </trkpt>
      <trkpt lat="44.07154" lon="4.8639">
        <ele>52</ele>
        <time>2012-05-09T07:59:36Z</time>
      </trkpt>
      <trkpt lat="44.07143" lon="4.86391">
        <ele>52</ele>
        <time>2012-05-09T07:59:44Z</time>
      </trkpt>
      <trkpt lat="44.07143" lon="4.86392">
        <ele>52</ele>
        <time>2012-05-09T08:00:55Z</time>
      </trkpt>
      <trkpt lat="44.07139" lon="4.86404">
        <ele>51</ele>
        <time>2012-05-09T08:01:04Z</time>
      </trkpt>
      <trkpt lat="44.07138" lon="4.86404">
        <ele>51</ele>
        <time>2012-05-09T08:01:05Z</time>
      </trkpt>
      <trkpt lat="44.07124" lon="4.86406">
        <ele>51</ele>
        <time>2012-05-09T08:01:26Z</time>
      </trkpt>
      <trkpt lat="44.07108" lon="4.86393">
        <ele>51</ele>
        <time>2012-05-09T08:01:35Z</time>
      </trkpt>
      <trkpt lat="44.07077" lon="4.86389">
        <ele>50</ele>
        <time>2012-05-09T08:01:49Z</time>
      </trkpt>
      <trkpt lat="44.07065" lon="4.86386">
        <ele>51</ele>
        <time>2012-05-09T08:01:55Z</time>
      </trkpt>
      <trkpt lat="44.0706" lon="4.8635">
        <ele>53</ele>
        <time>2012-05-09T08:02:08Z</time>
      </trkpt>
      <trkpt lat="44.07057" lon="4.86336">
        <ele>53</ele>
        <time>2012-05-09T08:02:15Z</time>
      </trkpt>
      <trkpt lat="44.07045" lon="4.86309">
        <ele>56</ele>
        <time>2012-05-09T08:02:27Z</time>
      </trkpt>
      <trkpt lat="44.0704" lon="4.86313">
        <ele>56</ele>
        <time>2012-05-09T08:02:31Z</time>
      </trkpt>
      <trkpt lat="44.07019" lon="4.86334">
        <ele>53</ele>
        <time>2012-05-09T08:02:41Z</time>
      </trkpt>
      <trkpt lat="44.07001" lon="4.86342">
        <ele>54</ele>
        <time>2012-05-09T08:02:47Z</time>
      </trkpt>
      <trkpt lat="44.06984" lon="4.86358">
        <ele>56</ele>
        <time>2012-05-09T08:02:56Z</time>
      </trkpt>
      <trkpt lat="44.06982" lon="4.86378">
        <ele>56</ele>
        <time>2012-05-09T08:03:01Z</time>
      </trkpt>
      <trkpt lat="44.06963" lon="4.86376">
        <ele>57</ele>
        <time>2012-05-09T08:03:10Z</time>
      </trkpt>
      <trkpt lat="44.06962" lon="4.86371">
        <ele>57</ele>
        <time>2012-05-09T08:03:12Z</time>
      </trkpt>
      <trkpt lat="44.06963" lon="4.86356">
        <ele>57</ele>
        <time>2012-05-09T08:03:19Z</time>
      </trkpt>
      <trkpt lat="44.06965" lon="4.86351">
        <ele>57</ele>
        <time>2012-05-09T08:03:27Z</time>
      </trkpt>
      <trkpt lat="44.06956" lon="4.86338">
        <ele>58</ele>
        <time>2012-05-09T08:03:38Z</time>
      </trkpt>
      <trkpt lat="44.06955" lon="4.86337">
        <ele>58</ele>
        <time>2012-05-09T08:03:40Z</time>
      </trkpt>
      <trkpt lat="44.06948" lon="4.86335">
        <ele>59</ele>
        <time>2012-05-09T08:03:50Z</time>
      </trkpt>
      <trkpt lat="44.0694" lon="4.86316">
        <ele>61</ele>
        <time>2012-05-09T08:04:13Z</time>
      </trkpt>
      <trkpt lat="44.06938" lon="4.86277">
        <ele>62</ele>
        <time>2012-05-09T08:04:29Z</time>
      </trkpt>
      <trkpt lat="44.06929" lon="4.86266">
        <ele>63</ele>
        <time>2012-05-09T08:04:36Z</time>
      </trkpt>
      <trkpt lat="44.06931" lon="4.86251">
        <ele>63</ele>
        <time>2012-05-09T08:04:44Z</time>
      </trkpt>
      <trkpt lat="44.06928" lon="4.86248">
        <ele>64</ele>
        <time>2012-05-09T08:04:46Z</time>
      </trkpt>
      <trkpt lat="44.06922" lon="4.86237">
        <ele>64</ele>
        <time>2012-05-09T08:05:13Z</time>
      </trkpt>
      <trkpt lat="44.0692" lon="4.86237">
        <ele>64</ele>
        <time>2012-05-09T08:05:14Z</time>
      </trkpt>
      <trkpt lat="44.06912" lon="4.8623">
        <ele>70</ele>
        <time>2012-05-09T08:05:27Z</time>
      </trkpt>
      <trkpt lat="44.06905" lon="4.86232">
        <ele>70</ele>
        <time>2012-05-09T08:05:34Z</time>
      </trkpt>
      <trkpt lat="44.06889" lon="4.86237">
        <ele>72</ele>
        <time>2012-05-09T08:05:47Z</time>
      </trkpt>
      <trkpt lat="44.06887" lon="4.86235">
        <ele>72</ele>
        <time>2012-05-09T08:05:50Z</time>
      </trkpt>
      <trkpt lat="44.06878" lon="4.86237">
        <ele>74</ele>
        <time>2012-05-09T08:05:59Z</time>
      </trkpt>
      <trkpt lat="44.06876" lon="4.86243">
        <ele>74</ele>
        <time>2012-05-09T08:06:05Z</time>
      </trkpt>
      <trkpt lat="44.06876" lon="4.86249">
        <ele>74</ele>
        <time>2012-05-09T08:06:17Z</time>
      </trkpt>
      <trkpt lat="44.06878" lon="4.86264">
        <ele>76</ele>
        <time>2012-05-09T08:06:30Z</time>
      </trkpt>
      <trkpt lat="44.06873" lon="4.86274">
        <ele>77</ele>
        <time>2012-05-09T08:06:41Z</time>
      </trkpt>
      <trkpt lat="44.06869" lon="4.86272">
        <ele>77</ele>
        <time>2012-05-09T08:06:44Z</time>
      </trkpt>
      <trkpt lat="44.06858" lon="4.86282">
        <ele>79</ele>
        <time>2012-05-09T08:07:04Z</time>
      </trkpt>
      <trkpt lat="44.06855" lon="4.86289">
        <ele>79</ele>
        <time>2012-05-09T08:07:09Z</time>
      </trkpt>
      <trkpt lat="44.06851" lon="4.86294">
        <ele>80</ele>
        <time>2012-05-09T08:07:16Z</time>
      </trkpt>
      <trkpt lat="44.06846" lon="4.86301">
        <ele>81</ele>
        <time>2012-05-09T08:07:26Z</time>
      </trkpt>
      <trkpt lat="44.06839" lon="4.86295">
        <ele>81</ele>
        <time>2012-05-09T08:07:36Z</time>
      </trkpt>
      <trkpt lat="44.06833" lon="4.86288">
        <ele>92</ele>
        <time>2012-05-09T08:07:42Z</time>
      </trkpt>
      <trkpt lat="44.06841" lon="4.86281">
        <ele>81</ele>
        <time>2012-05-09T08:07:51Z</time>
      </trkpt>
      <trkpt lat="44.06844" lon="4.86273">
        <ele>81</ele>
        <time>2012-05-09T08:07:55Z</time>
      </trkpt>
      <trkpt lat="44.06856" lon="4.86264">
        <ele>80</ele>
        <time>2012-05-09T08:08:04Z</time>
      </trkpt>
      <trkpt lat="44.06854" lon="4.86254">
        <ele>80</ele>
        <time>2012-05-09T08:08:08Z</time>
      </trkpt>
      <trkpt lat="44.06848" lon="4.86241">
        <ele>80</ele>
        <time>2012-05-09T08:08:16Z</time>
      </trkpt>
      <trkpt lat="44.06843" lon="4.86224">
        <ele>78</ele>
        <time>2012-05-09T08:08:22Z</time>
      </trkpt>
      <trkpt lat="44.06829" lon="4.86212">
        <ele>87</ele>
        <time>2012-05-09T08:08:32Z</time>
      </trkpt>
      <trkpt lat="44.06822" lon="4.86205">
        <ele>87</ele>
        <time>2012-05-09T08:08:38Z</time>
      </trkpt>
      <trkpt lat="44.06816" lon="4.86208">
        <ele>87</ele>
        <time>2012-05-09T08:08:44Z</time>
      </trkpt>
      <trkpt lat="44.0681" lon="4.86212">
        <ele>88</ele>
        <time>2012-05-09T08:08:51Z</time>
      </trkpt>
      <trkpt lat="44.06797" lon="4.86218">
        <ele>90</ele>
        <time>2012-05-09T08:09:04Z</time>
      </trkpt>
      <trkpt lat="44.06794" lon="4.86218">
        <ele>90</ele>
        <time>2012-05-09T08:09:07Z</time>
      </trkpt>
      <trkpt lat="44.06782" lon="4.86225">
        <ele>91</ele>
        <time>2012-05-09T08:09:19Z</time>
      </trkpt>
      <trkpt lat="44.06779" lon="4.8623">
        <ele>92</ele>
        <time>2012-05-09T08:09:26Z</time>
      </trkpt>
      <trkpt lat="44.06775" lon="4.86233">
        <ele>93</ele>
        <time>2012-05-09T08:09:50Z</time>
      </trkpt>
      <trkpt lat="44.06772" lon="4.86236">
        <ele>93</ele>
        <time>2012-05-09T08:09:57Z</time>
      </trkpt>
      <trkpt lat="44.06758" lon="4.86235">
        <ele>95</ele>
        <time>2012-05-09T08:10:11Z</time>
      </trkpt>
      <trkpt lat="44.06752" lon="4.86232">
        <ele>95</ele>
        <time>2012-05-09T08:10:15Z</time>
      </trkpt>
      <trkpt lat="44.0674" lon="4.86221">
        <ele>101</ele>
        <time>2012-05-09T08:10:26Z</time>
      </trkpt>
      <trkpt lat="44.06737" lon="4.86219">
        <ele>101</ele>
        <time>2012-05-09T08:10:29Z</time>
      </trkpt>
      <trkpt lat="44.06727" lon="4.86224">
        <ele>101</ele>
        <time>2012-05-09T08:10:40Z</time>
      </trkpt>
      <trkpt lat="44.06729" lon="4.86234">
        <ele>101</ele>
        <time>2012-05-09T08:10:46Z</time>
      </trkpt>
      <trkpt lat="44.06745" lon="4.86267">
        <ele>101</ele>
        <time>2012-05-09T08:11:03Z</time>
      </trkpt>
      <trkpt lat="44.06751" lon="4.86282">
        <ele>97</ele>
        <time>2012-05-09T08:11:10Z</time>
      </trkpt>
      <trkpt lat="44.06759" lon="4.86321">
        <ele>99</ele>
        <time>2012-05-09T08:11:23Z</time>
      </trkpt>
      <trkpt lat="44.0675" lon="4.86334">
        <ele>103</ele>
        <time>2012-05-09T08:11:28Z</time>
      </trkpt>
      <trkpt lat="44.06717" lon="4.86354">
        <ele>103</ele>
        <time>2012-05-09T08:11:41Z</time>
      </trkpt>
      <trkpt lat="44.06694" lon="4.86353">
        <ele>103</ele>
        <time>2012-05-09T08:11:48Z</time>
      </trkpt>
      <trkpt lat="44.06668" lon="4.86368">
        <ele>103</ele>
        <time>2012-05-09T08:11:55Z</time>
      </trkpt>
      <trkpt lat="44.06661" lon="4.86368">
        <ele>102</ele>
        <time>2012-05-09T08:11:57Z</time>
      </trkpt>
      <trkpt lat="44.06655" lon="4.8641">
        <ele>102</ele>
        <time>2012-05-09T08:12:05Z</time>
      </trkpt>
      <trkpt lat="44.06642" lon="4.86417">
        <ele>100</ele>
        <time>2012-05-09T08:12:09Z</time>
      </trkpt>
      <trkpt lat="44.06612" lon="4.86419">
        <ele>99</ele>
        <time>2012-05-09T08:12:16Z</time>
      </trkpt>
      <trkpt lat="44.06582" lon="4.86427">
        <ele>98</ele>
        <time>2012-05-09T08:12:24Z</time>
      </trkpt>
      <trkpt lat="44.06558" lon="4.86426">
        <ele>98</ele>
        <time>2012-05-09T08:12:31Z</time>
      </trkpt>
      <trkpt lat="44.06556" lon="4.86426">
        <ele>98</ele>
        <time>2012-05-09T08:12:32Z</time>
      </trkpt>
      <trkpt lat="44.06551" lon="4.86408">
        <ele>98</ele>
        <time>2012-05-09T08:12:42Z</time>
      </trkpt>
      <trkpt lat="44.0655" lon="4.86397">
        <ele>98</ele>
        <time>2012-05-09T08:18:48Z</time>
      </trkpt>
      <trkpt lat="44.0655" lon="4.86345">
        <ele>98</ele>
        <time>2012-05-09T08:19:03Z</time>
      </trkpt>
      <trkpt lat="44.06553" lon="4.86314">
        <ele>99</ele>
        <time>2012-05-09T08:19:11Z</time>
      </trkpt>
      <trkpt lat="44.06568" lon="4.86226">
        <ele>101</ele>
        <time>2012-05-09T08:19:31Z</time>
      </trkpt>
      <trkpt lat="44.06577" lon="4.86174">
        <ele>102</ele>
        <time>2012-05-09T08:19:42Z</time>
      </trkpt>
      <trkpt lat="44.06579" lon="4.86082">
        <ele>102</ele>
        <time>2012-05-09T08:19:57Z</time>
      </trkpt>
      <trkpt lat="44.06576" lon="4.86015">
        <ele>101</ele>
        <time>2012-05-09T08:20:07Z</time>
      </trkpt>
      <trkpt lat="44.06572" lon="4.85962">
        <ele>99</ele>
        <time>2012-05-09T08:20:15Z</time>
      </trkpt>
      <trkpt lat="44.06569" lon="4.85927">
        <ele>98</ele>
        <time>2012-05-09T08:20:21Z</time>
      </trkpt>
      <trkpt lat="44.06564" lon="4.85877">
        <ele>98</ele>
        <time>2012-05-09T08:20:30Z</time>
      </trkpt>
      <trkpt lat="44.06557" lon="4.85817">
        <ele>98</ele>
        <time>2012-05-09T08:20:40Z</time>
      </trkpt>
      <trkpt lat="44.0655" lon="4.85746">
        <ele>96</ele>
        <time>2012-05-09T08:20:51Z</time>
      </trkpt>
      <trkpt lat="44.06539" lon="4.85742">
        <ele>96</ele>
        <time>2012-05-09T08:20:55Z</time>
      </trkpt>
      <trkpt lat="44.06461" lon="4.8577">
        <ele>97</ele>
        <time>2012-05-09T08:21:16Z</time>
      </trkpt>
      <trkpt lat="44.06428" lon="4.85782">
        <ele>97</ele>
        <time>2012-05-09T08:21:25Z</time>
      </trkpt>
      <trkpt lat="44.06365" lon="4.85804">
        <ele>99</ele>
        <time>2012-05-09T08:21:43Z</time>
      </trkpt>
      <trkpt lat="44.06334" lon="4.85816">
        <ele>99</ele>
        <time>2012-05-09T08:21:53Z</time>
      </trkpt>
      <trkpt lat="44.06283" lon="4.85834">
        <ele>104</ele>
        <time>2012-05-09T08:22:09Z</time>
      </trkpt>
      <trkpt lat="44.06255" lon="4.85844">
        <ele>105</ele>
        <time>2012-05-09T08:22:19Z</time>
      </trkpt>
      <trkpt lat="44.06233" lon="4.85844">
        <ele>109</ele>
        <time>2012-05-09T08:22:29Z</time>
      </trkpt>
      <trkpt lat="44.06225" lon="4.85824">
        <ele>108</ele>
        <time>2012-05-09T08:22:36Z</time>
      </trkpt>
      <trkpt lat="44.06202" lon="4.85777">
        <ele>110</ele>
        <time>2012-05-09T08:22:52Z</time>
      </trkpt>
      <trkpt lat="44.0619" lon="4.85757">
        <ele>111</ele>
        <time>2012-05-09T08:23:00Z</time>
      </trkpt>
      <trkpt lat="44.06172" lon="4.85724">
        <ele>111</ele>
        <time>2012-05-09T08:23:15Z</time>
      </trkpt>
      <trkpt lat="44.06165" lon="4.85712">
        <ele>114</ele>
        <time>2012-05-09T08:23:22Z</time>
      </trkpt>
      <trkpt lat="44.06164" lon="4.85708">
        <ele>115</ele>
        <time>2012-05-09T08:23:28Z</time>
      </trkpt>
      <trkpt lat="44.0617" lon="4.85707">
        <ele>111</ele>
        <time>2012-05-09T08:23:32Z</time>
      </trkpt>
      <trkpt lat="44.06205" lon="4.85704">
        <ele>110</ele>
        <time>2012-05-09T08:23:43Z</time>
      </trkpt>
      <trkpt lat="44.06217" lon="4.85692">
        <ele>109</ele>
        <time>2012-05-09T08:23:47Z</time>
      </trkpt>
      <trkpt lat="44.06223" lon="4.85653">
        <ele>111</ele>
        <time>2012-05-09T08:23:58Z</time>
      </trkpt>
      <trkpt lat="44.06224" lon="4.85631">
        <ele>112</ele>
        <time>2012-05-09T08:24:05Z</time>
      </trkpt>
      <trkpt lat="44.06224" lon="4.85586">
        <ele>113</ele>
        <time>2012-05-09T08:24:21Z</time>
      </trkpt>
      <trkpt lat="44.06224" lon="4.85571">
        <ele>116</ele>
        <time>2012-05-09T08:24:27Z</time>
      </trkpt>
      <trkpt lat="44.06225" lon="4.85538">
        <ele>118</ele>
        <time>2012-05-09T08:24:42Z</time>
      </trkpt>
      <trkpt lat="44.06227" lon="4.85522">
        <ele>118</ele>
        <time>2012-05-09T08:24:49Z</time>
      </trkpt>
      <trkpt lat="44.06235" lon="4.85494">
        <ele>121</ele>
        <time>2012-05-09T08:25:03Z</time>
      </trkpt>
      <trkpt lat="44.06238" lon="4.8548">
        <ele>121</ele>
        <time>2012-05-09T08:25:10Z</time>
      </trkpt>
      <trkpt lat="44.06254" lon="4.85444">
        <ele>118</ele>
        <time>2012-05-09T08:25:24Z</time>
      </trkpt>
      <trkpt lat="44.06261" lon="4.8542">
        <ele>120</ele>
        <time>2012-05-09T08:25:33Z</time>
      </trkpt>
      <trkpt lat="44.06272" lon="4.85367">
        <ele>118</ele>
        <time>2012-05-09T08:25:51Z</time>
      </trkpt>
      <trkpt lat="44.06273" lon="4.85351">
        <ele>119</ele>
        <time>2012-05-09T08:25:59Z</time>
      </trkpt>
      <trkpt lat="44.06266" lon="4.85345">
        <ele>120</ele>
        <time>2012-05-09T08:26:09Z</time>
      </trkpt>
      <trkpt lat="44.06265" lon="4.85334">
        <ele>120</ele>
        <time>2012-05-09T08:26:15Z</time>
      </trkpt>
      <trkpt lat="44.06273" lon="4.85284">
        <ele>120</ele>
        <time>2012-05-09T08:26:29Z</time>
      </trkpt>
      <trkpt lat="44.06278" lon="4.85253">
        <ele>120</ele>
        <time>2012-05-09T08:26:37Z</time>
      </trkpt>
      <trkpt lat="44.06299" lon="4.85182">
        <ele>121</ele>
        <time>2012-05-09T08:26:55Z</time>
      </trkpt>
      <trkpt lat="44.06306" lon="4.85154">
        <ele>121</ele>
        <time>2012-05-09T08:27:02Z</time>
      </trkpt>
      <trkpt lat="44.06316" lon="4.85077">
        <ele>123</ele>
        <time>2012-05-09T08:27:20Z</time>
      </trkpt>
      <trkpt lat="44.06317" lon="4.85028">
        <ele>123</ele>
        <time>2012-05-09T08:27:30Z</time>
      </trkpt>
      <trkpt lat="44.06323" lon="4.84946">
        <ele>122</ele>
        <time>2012-05-09T08:27:48Z</time>
      </trkpt>
      <trkpt lat="44.06328" lon="4.84912">
        <ele>121</ele>
        <time>2012-05-09T08:27:56Z</time>
      </trkpt>
      <trkpt lat="44.06338" lon="4.84839">
        <ele>119</ele>
        <time>2012-05-09T08:28:12Z</time>
      </trkpt>
      <trkpt lat="44.06335" lon="4.8481">
        <ele>115</ele>
        <time>2012-05-09T08:28:18Z</time>
      </trkpt>
      <trkpt lat="44.06306" lon="4.84752">
        <ele>118</ele>
        <time>2012-05-09T08:28:32Z</time>
      </trkpt>
      <trkpt lat="44.06294" lon="4.84726">
        <ele>113</ele>
        <time>2012-05-09T08:28:38Z</time>
      </trkpt>
      <trkpt lat="44.06261" lon="4.84724">
        <ele>114</ele>
        <time>2012-05-09T08:28:47Z</time>
      </trkpt>
      <trkpt lat="44.06252" lon="4.84738">
        <ele>116</ele>
        <time>2012-05-09T08:28:51Z</time>
      </trkpt>
      <trkpt lat="44.06248" lon="4.84792">
        <ele>118</ele>
        <time>2012-05-09T08:29:03Z</time>
      </trkpt>
      <trkpt lat="44.06247" lon="4.84813">
        <ele>119</ele>
        <time>2012-05-09T08:29:09Z</time>
      </trkpt>
      <trkpt lat="44.06239" lon="4.84808">
        <ele>119</ele>
        <time>2012-05-09T08:29:17Z</time>
      </trkpt>
      <trkpt lat="44.06236" lon="4.84781">
        <ele>117</ele>
        <time>2012-05-09T08:29:23Z</time>
      </trkpt>
      <trkpt lat="44.06241" lon="4.84726">
        <ele>112</ele>
        <time>2012-05-09T08:29:35Z</time>
      </trkpt>
      <trkpt lat="44.06248" lon="4.84704">
        <ele>110</ele>
        <time>2012-05-09T08:29:41Z</time>
      </trkpt>
      <trkpt lat="44.06257" lon="4.84667">
        <ele>110</ele>
        <time>2012-05-09T08:29:50Z</time>
      </trkpt>
      <trkpt lat="44.06254" lon="4.8466">
        <ele>107</ele>
        <time>2012-05-09T08:29:54Z</time>
      </trkpt>
      <trkpt lat="44.0624" lon="4.84677">
        <ele>109</ele>
        <time>2012-05-09T08:30:00Z</time>
      </trkpt>
      <trkpt lat="44.06232" lon="4.84694">
        <ele>109</ele>
        <time>2012-05-09T08:30:03Z</time>
      </trkpt>
      <trkpt lat="44.06215" lon="4.84708">
        <ele>109</ele>
        <time>2012-05-09T08:30:08Z</time>
      </trkpt>
      <trkpt lat="44.06202" lon="4.84713">
        <ele>108</ele>
        <time>2012-05-09T08:30:13Z</time>
      </trkpt>
      <trkpt lat="44.06175" lon="4.84721">
        <ele>107</ele>
        <time>2012-05-09T08:30:22Z</time>
      </trkpt>
      <trkpt lat="44.06173" lon="4.84715">
        <ele>107</ele>
        <time>2012-05-09T08:30:25Z</time>
      </trkpt>
      <trkpt lat="44.06177" lon="4.84692">
        <ele>105</ele>
        <time>2012-05-09T08:32:11Z</time>
      </trkpt>
      <trkpt lat="44.06182" lon="4.84668">
        <ele>103</ele>
        <time>2012-05-09T08:32:17Z</time>
      </trkpt>
      <trkpt lat="44.06186" lon="4.84624">
        <ele>97</ele>
        <time>2012-05-09T08:32:28Z</time>
      </trkpt>
      <trkpt lat="44.06173" lon="4.84613">
        <ele>95</ele>
        <time>2012-05-09T08:32:32Z</time>
      </trkpt>
      <trkpt lat="44.06123" lon="4.84574">
        <ele>83</ele>
        <time>2012-05-09T08:32:41Z</time>
      </trkpt>
      <trkpt lat="44.06087" lon="4.84542">
        <ele>81</ele>
        <time>2012-05-09T08:32:48Z</time>
      </trkpt>
      <trkpt lat="44.06079" lon="4.84519">
        <ele>78</ele>
        <time>2012-05-09T08:32:54Z</time>
      </trkpt>
      <trkpt lat="44.06083" lon="4.84511">
        <ele>78</ele>
        <time>2012-05-09T08:32:56Z</time>
      </trkpt>
      <trkpt lat="44.06088" lon="4.84502">
        <ele>79</ele>
        <time>2012-05-09T08:33:05Z</time>
      </trkpt>
      <trkpt lat="44.06089" lon="4.84499">
        <ele>78</ele>
        <time>2012-05-09T08:33:06Z</time>
      </trkpt>
      <trkpt lat="44.06077" lon="4.84481">
        <ele>76</ele>
        <time>2012-05-09T08:33:12Z</time>
      </trkpt>
      <trkpt lat="44.06041" lon="4.84457">
        <ele>75</ele>
        <time>2012-05-09T08:33:20Z</time>
      </trkpt>
      <trkpt lat="44.0603" lon="4.84437">
        <ele>74</ele>
        <time>2012-05-09T08:33:28Z</time>
      </trkpt>
      <trkpt lat="44.06038" lon="4.84396">
        <ele>72</ele>
        <time>2012-05-09T08:33:36Z</time>
      </trkpt>
      <trkpt lat="44.06039" lon="4.84341">
        <ele>71</ele>
        <time>2012-05-09T08:33:46Z</time>
      </trkpt>
      <trkpt lat="44.06032" lon="4.84333">
        <ele>69</ele>
        <time>2012-05-09T08:33:48Z</time>
      </trkpt>
      <trkpt lat="44.06018" lon="4.84301">
        <ele>69</ele>
        <time>2012-05-09T08:33:54Z</time>
      </trkpt>
      <trkpt lat="44.06022" lon="4.8429">
        <ele>68</ele>
        <time>2012-05-09T08:33:56Z</time>
      </trkpt>
      <trkpt lat="44.06083" lon="4.84192">
        <ele>68</ele>
        <time>2012-05-09T08:34:14Z</time>
      </trkpt>
      <trkpt lat="44.06116" lon="4.84131">
        <ele>69</ele>
        <time>2012-05-09T08:34:25Z</time>
      </trkpt>
      <trkpt lat="44.06132" lon="4.84059">
        <ele>71</ele>
        <time>2012-05-09T08:34:37Z</time>
      </trkpt>
      <trkpt lat="44.06139" lon="4.84019">
        <ele>72</ele>
        <time>2012-05-09T08:34:45Z</time>
      </trkpt>
      <trkpt lat="44.06146" lon="4.84004">
        <ele>72</ele>
        <time>2012-05-09T08:34:52Z</time>
      </trkpt>
      <trkpt lat="44.06147" lon="4.84007">
        <ele>72</ele>
        <time>2012-05-09T08:34:53Z</time>
      </trkpt>
      <trkpt lat="44.06179" lon="4.8406">
        <ele>73</ele>
        <time>2012-05-09T08:35:09Z</time>
      </trkpt>
      <trkpt lat="44.06203" lon="4.84087">
        <ele>72</ele>
        <time>2012-05-09T08:35:18Z</time>
      </trkpt>
      <trkpt lat="44.0625" lon="4.84094">
        <ele>72</ele>
        <time>2012-05-09T08:35:31Z</time>
      </trkpt>
      <trkpt lat="44.06286" lon="4.84093">
        <ele>74</ele>
        <time>2012-05-09T08:35:41Z</time>
      </trkpt>
      <trkpt lat="44.06342" lon="4.84086">
        <ele>78</ele>
        <time>2012-05-09T08:35:58Z</time>
      </trkpt>
      <trkpt lat="44.06378" lon="4.84082">
        <ele>79</ele>
        <time>2012-05-09T08:36:09Z</time>
      </trkpt>
      <trkpt lat="44.06413" lon="4.84084">
        <ele>79</ele>
        <time>2012-05-09T08:36:20Z</time>
      </trkpt>
      <trkpt lat="44.06422" lon="4.84074">
        <ele>81</ele>
        <time>2012-05-09T08:36:25Z</time>
      </trkpt>
      <trkpt lat="44.06422" lon="4.84064">
        <ele>82</ele>
        <time>2012-05-09T08:37:08Z</time>
      </trkpt>
      <trkpt lat="44.0642" lon="4.84045">
        <ele>83</ele>
        <time>2012-05-09T08:37:15Z</time>
      </trkpt>
      <trkpt lat="44.06414" lon="4.83992">
        <ele>84</ele>
        <time>2012-05-09T08:37:30Z</time>
      </trkpt>
      <trkpt lat="44.06421" lon="4.83974">
        <ele>86</ele>
        <time>2012-05-09T08:37:37Z</time>
      </trkpt>
      <trkpt lat="44.06422" lon="4.83925">
        <ele>88</ele>
        <time>2012-05-09T08:37:53Z</time>
      </trkpt>
      <trkpt lat="44.06424" lon="4.839">
        <ele>91</ele>
        <time>2012-05-09T08:38:01Z</time>
      </trkpt>
      <trkpt lat="44.06456" lon="4.83914">
        <ele>92</ele>
        <time>2012-05-09T08:38:16Z</time>
      </trkpt>
      <trkpt lat="44.06478" lon="4.83922">
        <ele>90</ele>
        <time>2012-05-09T08:38:26Z</time>
      </trkpt>
      <trkpt lat="44.0652" lon="4.83937">
        <ele>93</ele>
        <time>2012-05-09T08:38:45Z</time>
      </trkpt>
      <trkpt lat="44.06536" lon="4.83944">
        <ele>93</ele>
        <time>2012-05-09T08:38:53Z</time>
      </trkpt>
      <trkpt lat="44.06574" lon="4.83953">
        <ele>94</ele>
        <time>2012-05-09T08:39:09Z</time>
      </trkpt>
      <trkpt lat="44.06594" lon="4.83957">
        <ele>98</ele>
        <time>2012-05-09T08:39:17Z</time>
      </trkpt>
      <trkpt lat="44.06631" lon="4.83943">
        <ele>100</ele>
        <time>2012-05-09T08:39:33Z</time>
      </trkpt>
      <trkpt lat="44.06647" lon="4.83937">
        <ele>101</ele>
        <time>2012-05-09T08:39:41Z</time>
      </trkpt>
      <trkpt lat="44.06686" lon="4.8394">
        <ele>101</ele>
        <time>2012-05-09T08:39:57Z</time>
      </trkpt>
      <trkpt lat="44.06713" lon="4.83938">
        <ele>100</ele>
        <time>2012-05-09T08:40:05Z</time>
      </trkpt>
      <trkpt lat="44.06746" lon="4.83928">
        <ele>100</ele>
        <time>2012-05-09T08:40:12Z</time>
      </trkpt>
      <trkpt lat="44.06765" lon="4.83914">
        <ele>101</ele>
        <time>2012-05-09T08:40:19Z</time>
      </trkpt>
      <trkpt lat="44.06803" lon="4.83885">
        <ele>103</ele>
        <time>2012-05-09T08:40:35Z</time>
      </trkpt>
      <trkpt lat="44.0682" lon="4.83876">
        <ele>103</ele>
        <time>2012-05-09T08:40:43Z</time>
      </trkpt>
      <trkpt lat="44.06853" lon="4.83857">
        <ele>106</ele>
        <time>2012-05-09T08:41:01Z</time>
      </trkpt>
      <trkpt lat="44.06865" lon="4.83851">
        <ele>106</ele>
        <time>2012-05-09T08:41:07Z</time>
      </trkpt>
      <trkpt lat="44.06906" lon="4.83836">
        <ele>108</ele>
        <time>2012-05-09T08:41:26Z</time>
      </trkpt>
      <trkpt lat="44.06926" lon="4.83835">
        <ele>109</ele>
        <time>2012-05-09T08:41:35Z</time>
      </trkpt>
      <trkpt lat="44.06957" lon="4.83843">
        <ele>110</ele>
        <time>2012-05-09T08:41:49Z</time>
      </trkpt>
      <trkpt lat="44.06977" lon="4.83849">
        <ele>110</ele>
        <time>2012-05-09T08:41:58Z</time>
      </trkpt>
      <trkpt lat="44.07021" lon="4.83861">
        <ele>114</ele>
        <time>2012-05-09T08:42:18Z</time>
      </trkpt>
      <trkpt lat="44.07039" lon="4.83866">
        <ele>115</ele>
        <time>2012-05-09T08:42:26Z</time>
      </trkpt>
      <trkpt lat="44.07074" lon="4.83855">
        <ele>117</ele>
        <time>2012-05-09T08:42:42Z</time>
      </trkpt>
      <trkpt lat="44.07082" lon="4.83842">
        <ele>118</ele>
        <time>2012-05-09T08:42:47Z</time>
      </trkpt>
      <trkpt lat="44.07112" lon="4.83829">
        <ele>121</ele>
        <time>2012-05-09T08:43:00Z</time>
      </trkpt>
      <trkpt lat="44.07132" lon="4.83829">
        <ele>122</ele>
        <time>2012-05-09T08:43:07Z</time>
      </trkpt>
      <trkpt lat="44.07193" lon="4.83843">
        <ele>123</ele>
        <time>2012-05-09T08:43:24Z</time>
      </trkpt>
      <trkpt lat="44.07229" lon="4.83864">
        <ele>123</ele>
        <time>2012-05-09T08:43:33Z</time>
      </trkpt>
      <trkpt lat="44.073" lon="4.839">
        <ele>123</ele>
        <time>2012-05-09T08:43:51Z</time>
      </trkpt>
      <trkpt lat="44.07328" lon="4.83918">
        <ele>123</ele>
        <time>2012-05-09T08:43:59Z</time>
      </trkpt>
      <trkpt lat="44.07358" lon="4.83943">
        <ele>122</ele>
        <time>2012-05-09T08:44:11Z</time>
      </trkpt>
      <trkpt lat="44.07358" lon="4.83943">
        <ele>122</ele>
        <time>2012-05-09T08:44:12Z</time>
      </trkpt>
      <trkpt lat="44.07374" lon="4.8391">
        <ele>123</ele>
        <time>2012-05-09T08:45:17Z</time>
      </trkpt>
      <trkpt lat="44.07383" lon="4.83885">
        <ele>123</ele>
        <time>2012-05-09T08:45:25Z</time>
      </trkpt>
      <trkpt lat="44.07407" lon="4.83813">
        <ele>122</ele>
        <time>2012-05-09T08:45:42Z</time>
      </trkpt>
      <trkpt lat="44.07408" lon="4.83807">
        <ele>122</ele>
        <time>2012-05-09T08:45:43Z</time>
      </trkpt>
      <trkpt lat="44.07391" lon="4.8374">
        <ele>120</ele>
        <time>2012-05-09T08:45:55Z</time>
      </trkpt>
      <trkpt lat="44.07386" lon="4.83694">
        <ele>120</ele>
        <time>2012-05-09T08:46:02Z</time>
      </trkpt>
      <trkpt lat="44.07378" lon="4.83574">
        <ele>115</ele>
        <time>2012-05-09T08:46:17Z</time>
      </trkpt>
      <trkpt lat="44.07374" lon="4.83496">
        <ele>112</ele>
        <time>2012-05-09T08:46:27Z</time>
      </trkpt>
      <trkpt lat="44.07374" lon="4.83441">
        <ele>111</ele>
        <time>2012-05-09T08:46:34Z</time>
      </trkpt>
      <trkpt lat="44.07382" lon="4.83412">
        <ele>108</ele>
        <time>2012-05-09T08:46:38Z</time>
      </trkpt>
      <trkpt lat="44.074" lon="4.83373">
        <ele>107</ele>
        <time>2012-05-09T08:46:44Z</time>
      </trkpt>
      <trkpt lat="44.0741" lon="4.83339">
        <ele>105</ele>
        <time>2012-05-09T08:46:49Z</time>
      </trkpt>
      <trkpt lat="44.07417" lon="4.83315">
        <ele>103</ele>
        <time>2012-05-09T08:46:53Z</time>
      </trkpt>
      <trkpt lat="44.07424" lon="4.83298">
        <ele>103</ele>
        <time>2012-05-09T08:46:57Z</time>
      </trkpt>
      <trkpt lat="44.0746" lon="4.83252">
        <ele>103</ele>
        <time>2012-05-09T08:47:08Z</time>
      </trkpt>
      <trkpt lat="44.07485" lon="4.83231">
        <ele>101</ele>
        <time>2012-05-09T08:47:13Z</time>
      </trkpt>
      <trkpt lat="44.07511" lon="4.83197">
        <ele>100</ele>
        <time>2012-05-09T08:47:19Z</time>
      </trkpt>
      <trkpt lat="44.07518" lon="4.83174">
        <ele>99</ele>
        <time>2012-05-09T08:47:22Z</time>
      </trkpt>
      <trkpt lat="44.07518" lon="4.83065">
        <ele>97</ele>
        <time>2012-05-09T08:47:35Z</time>
      </trkpt>
      <trkpt lat="44.07526" lon="4.83032">
        <ele>97</ele>
        <time>2012-05-09T08:47:40Z</time>
      </trkpt>
      <trkpt lat="44.07541" lon="4.83018">
        <ele>97</ele>
        <time>2012-05-09T08:47:44Z</time>
      </trkpt>
      <trkpt lat="44.07551" lon="4.83008">
        <ele>97</ele>
        <time>2012-05-09T08:47:47Z</time>
      </trkpt>
      <trkpt lat="44.07574" lon="4.82957">
        <ele>97</ele>
        <time>2012-05-09T08:47:57Z</time>
      </trkpt>
      <trkpt lat="44.0758" lon="4.82905">
        <ele>97</ele>
        <time>2012-05-09T08:48:05Z</time>
      </trkpt>
      <trkpt lat="44.07577" lon="4.82797">
        <ele>97</ele>
        <time>2012-05-09T08:48:20Z</time>
      </trkpt>
      <trkpt lat="44.07584" lon="4.82716">
        <ele>95</ele>
        <time>2012-05-09T08:48:30Z</time>
      </trkpt>
      <trkpt lat="44.07593" lon="4.82608">
        <ele>93</ele>
        <time>2012-05-09T08:48:44Z</time>
      </trkpt>
      <trkpt lat="44.07606" lon="4.82559">
        <ele>93</ele>
        <time>2012-05-09T08:48:52Z</time>
      </trkpt>
      <trkpt lat="44.0762" lon="4.82524">
        <ele>94</ele>
        <time>2012-05-09T08:48:59Z</time>
      </trkpt>
      <trkpt lat="44.07608" lon="4.82518">
        <ele>94</ele>
        <time>2012-05-09T08:49:02Z</time>
      </trkpt>
      <trkpt lat="44.07574" lon="4.8253">
        <ele>94</ele>
        <time>2012-05-09T08:49:09Z</time>
      </trkpt>
      <trkpt lat="44.07563" lon="4.8254">
        <ele>94</ele>
        <time>2012-05-09T08:49:12Z</time>
      </trkpt>
      <trkpt lat="44.07491" lon="4.82589">
        <ele>92</ele>
        <time>2012-05-09T08:49:28Z</time>
      </trkpt>
      <trkpt lat="44.07472" lon="4.82598">
        <ele>92</ele>
        <time>2012-05-09T08:49:32Z</time>
      </trkpt>
      <trkpt lat="44.0741" lon="4.82615">
        <ele>90</ele>
        <time>2012-05-09T08:49:46Z</time>
      </trkpt>
      <trkpt lat="44.07388" lon="4.82619">
        <ele>90</ele>
        <time>2012-05-09T08:49:51Z</time>
      </trkpt>
      <trkpt lat="44.07364" lon="4.82631">
        <ele>89</ele>
        <time>2012-05-09T08:49:57Z</time>
      </trkpt>
      <trkpt lat="44.07348" lon="4.82636">
        <ele>89</ele>
        <time>2012-05-09T08:50:01Z</time>
      </trkpt>
      <trkpt lat="44.07333" lon="4.82653">
        <ele>88</ele>
        <time>2012-05-09T08:50:08Z</time>
      </trkpt>
      <trkpt lat="44.07301" lon="4.8265">
        <ele>88</ele>
        <time>2012-05-09T08:50:16Z</time>
      </trkpt>
      <trkpt lat="44.07258" lon="4.82631">
        <ele>87</ele>
        <time>2012-05-09T08:50:26Z</time>
      </trkpt>
      <trkpt lat="44.07227" lon="4.82624">
        <ele>86</ele>
        <time>2012-05-09T08:50:34Z</time>
      </trkpt>
      <trkpt lat="44.07197" lon="4.82615">
        <ele>85</ele>
        <time>2012-05-09T08:50:45Z</time>
      </trkpt>
      <trkpt lat="44.07189" lon="4.82612">
        <ele>85</ele>
        <time>2012-05-09T08:51:17Z</time>
      </trkpt>
      <trkpt lat="44.07119" lon="4.82587">
        <ele>85</ele>
        <time>2012-05-09T08:51:35Z</time>
      </trkpt>
      <trkpt lat="44.07097" lon="4.8258">
        <ele>83</ele>
        <time>2012-05-09T08:51:41Z</time>
      </trkpt>
      <trkpt lat="44.07074" lon="4.82592">
        <ele>87</ele>
        <time>2012-05-09T08:51:54Z</time>
      </trkpt>
      <trkpt lat="44.07068" lon="4.82608">
        <ele>91</ele>
        <time>2012-05-09T08:52:03Z</time>
      </trkpt>
      <trkpt lat="44.07064" lon="4.82619">
        <ele>92</ele>
        <time>2012-05-09T08:52:11Z</time>
      </trkpt>
      <trkpt lat="44.07063" lon="4.82612">
        <ele>92</ele>
        <time>2012-05-09T08:52:16Z</time>
      </trkpt>
      <trkpt lat="44.07056" lon="4.82604">
        <ele>92</ele>
        <time>2012-05-09T08:52:24Z</time>
      </trkpt>
      <trkpt lat="44.07049" lon="4.82599">
        <ele>92</ele>
        <time>2012-05-09T08:52:29Z</time>
      </trkpt>
      <trkpt lat="44.07045" lon="4.82578">
        <ele>86</ele>
        <time>2012-05-09T08:52:37Z</time>
      </trkpt>
      <trkpt lat="44.07037" lon="4.82577">
        <ele>87</ele>
        <time>2012-05-09T08:52:41Z</time>
      </trkpt>
      <trkpt lat="44.07016" lon="4.82572">
        <ele>89</ele>
        <time>2012-05-09T08:52:52Z</time>
      </trkpt>
      <trkpt lat="44.07016" lon="4.82572">
        <ele>89</ele>
        <time>2012-05-09T08:52:54Z</time>
      </trkpt>
      <trkpt lat="44.07006" lon="4.82569">
        <ele>90</ele>
        <time>2012-05-09T08:53:03Z</time>
      </trkpt>
      <trkpt lat="44.07003" lon="4.82569">
        <ele>90</ele>
        <time>2012-05-09T08:53:08Z</time>
      </trkpt>
      <trkpt lat="44.06992" lon="4.82562">
        <ele>93</ele>
        <time>2012-05-09T08:53:15Z</time>
      </trkpt>
      <trkpt lat="44.06984" lon="4.82555">
        <ele>93</ele>
        <time>2012-05-09T08:53:21Z</time>
      </trkpt>
      <trkpt lat="44.06966" lon="4.8255">
        <ele>93</ele>
        <time>2012-05-09T08:53:30Z</time>
      </trkpt>
      <trkpt lat="44.06964" lon="4.82545">
        <ele>93</ele>
        <time>2012-05-09T08:53:32Z</time>
      </trkpt>
      <trkpt lat="44.06946" lon="4.82536">
        <ele>93</ele>
        <time>2012-05-09T08:53:42Z</time>
      </trkpt>
      <trkpt lat="44.06946" lon="4.82536">
        <ele>93</ele>
        <time>2012-05-09T08:53:43Z</time>
      </trkpt>
      <trkpt lat="44.06925" lon="4.82535">
        <ele>93</ele>
        <time>2012-05-09T08:53:54Z</time>
      </trkpt>
      <trkpt lat="44.06922" lon="4.82536">
        <ele>93</ele>
        <time>2012-05-09T08:53:56Z</time>
      </trkpt>
      <trkpt lat="44.06915" lon="4.82516">
        <ele>95</ele>
        <time>2012-05-09T08:54:09Z</time>
      </trkpt>
      <trkpt lat="44.06914" lon="4.82515">
        <ele>95</ele>
        <time>2012-05-09T08:54:11Z</time>
      </trkpt>
      <trkpt lat="44.06917" lon="4.82508">
        <ele>89</ele>
        <time>2012-05-09T08:54:59Z</time>
      </trkpt>
      <trkpt lat="44.06923" lon="4.825">
        <ele>89</ele>
        <time>2012-05-09T08:55:04Z</time>
      </trkpt>
      <trkpt lat="44.06924" lon="4.82486">
        <ele>85</ele>
        <time>2012-05-09T08:55:13Z</time>
      </trkpt>
      <trkpt lat="44.06922" lon="4.82478">
        <ele>85</ele>
        <time>2012-05-09T08:55:18Z</time>
      </trkpt>
      <trkpt lat="44.06905" lon="4.82463">
        <ele>87</ele>
        <time>2012-05-09T08:55:28Z</time>
      </trkpt>
      <trkpt lat="44.06894" lon="4.82456">
        <ele>87</ele>
        <time>2012-05-09T08:55:33Z</time>
      </trkpt>
      <trkpt lat="44.06874" lon="4.82431">
        <ele>87</ele>
        <time>2012-05-09T08:55:42Z</time>
      </trkpt>
      <trkpt lat="44.06868" lon="4.82425">
        <ele>87</ele>
        <time>2012-05-09T08:55:45Z</time>
      </trkpt>
      <trkpt lat="44.06858" lon="4.82436">
        <ele>88</ele>
        <time>2012-05-09T08:55:57Z</time>
      </trkpt>
      <trkpt lat="44.06857" lon="4.82436">
        <ele>88</ele>
        <time>2012-05-09T08:56:00Z</time>
      </trkpt>
      <trkpt lat="44.06851" lon="4.82431">
        <ele>88</ele>
        <time>2012-05-09T08:56:12Z</time>
      </trkpt>
      <trkpt lat="44.06845" lon="4.82423">
        <ele>87</ele>
        <time>2012-05-09T08:56:17Z</time>
      </trkpt>
      <trkpt lat="44.06836" lon="4.82405">
        <ele>84</ele>
        <time>2012-05-09T08:56:25Z</time>
      </trkpt>
      <trkpt lat="44.06832" lon="4.82396">
        <ele>87</ele>
        <time>2012-05-09T08:56:30Z</time>
      </trkpt>
      <trkpt lat="44.06828" lon="4.82391">
        <ele>87</ele>
        <time>2012-05-09T08:56:36Z</time>
      </trkpt>
      <trkpt lat="44.06822" lon="4.8238">
        <ele>87</ele>
        <time>2012-05-09T08:56:45Z</time>
      </trkpt>
      <trkpt lat="44.06813" lon="4.82359">
        <ele>86</ele>
        <time>2012-05-09T08:56:54Z</time>
      </trkpt>
      <trkpt lat="44.06807" lon="4.82349">
        <ele>86</ele>
        <time>2012-05-09T08:56:59Z</time>
      </trkpt>
      <trkpt lat="44.06795" lon="4.82333">
        <ele>86</ele>
        <time>2012-05-09T08:57:07Z</time>
      </trkpt>
      <trkpt lat="44.06792" lon="4.82322">
        <ele>81</ele>
        <time>2012-05-09T08:57:13Z</time>
      </trkpt>
      <trkpt lat="44.06793" lon="4.82306">
        <ele>80</ele>
        <time>2012-05-09T08:57:48Z</time>
      </trkpt>
      <trkpt lat="44.06803" lon="4.82298">
        <ele>80</ele>
        <time>2012-05-09T08:58:01Z</time>
      </trkpt>
      <trkpt lat="44.06808" lon="4.8229">
        <ele>79</ele>
        <time>2012-05-09T08:58:09Z</time>
      </trkpt>
      <trkpt lat="44.0681" lon="4.82287">
        <ele>79</ele>
        <time>2012-05-09T08:58:13Z</time>
      </trkpt>
      <trkpt lat="44.06797" lon="4.82265">
        <ele>79</ele>
        <time>2012-05-09T08:58:35Z</time>
      </trkpt>
      <trkpt lat="44.06781" lon="4.82255">
        <ele>79</ele>
        <time>2012-05-09T08:58:42Z</time>
      </trkpt>
      <trkpt lat="44.06747" lon="4.82242">
        <ele>78</ele>
        <time>2012-05-09T08:58:56Z</time>
      </trkpt>
      <trkpt lat="44.06723" lon="4.8224">
        <ele>78</ele>
        <time>2012-05-09T08:59:04Z</time>
      </trkpt>
      <trkpt lat="44.06679" lon="4.82226">
        <ele>78</ele>
        <time>2012-05-09T08:59:18Z</time>
      </trkpt>
      <trkpt lat="44.0665" lon="4.82215">
        <ele>75</ele>
        <time>2012-05-09T08:59:27Z</time>
      </trkpt>
      <trkpt lat="44.06621" lon="4.82203">
        <ele>75</ele>
        <time>2012-05-09T08:59:39Z</time>
      </trkpt>
      <trkpt lat="44.06618" lon="4.82193">
        <ele>75</ele>
        <time>2012-05-09T08:59:43Z</time>
      </trkpt>
      <trkpt lat="44.06634" lon="4.82169">
        <ele>75</ele>
        <time>2012-05-09T08:59:54Z</time>
      </trkpt>
      <trkpt lat="44.06642" lon="4.82153">
        <ele>74</ele>
        <time>2012-05-09T09:00:02Z</time>
      </trkpt>
      <trkpt lat="44.06657" lon="4.82097">
        <ele>73</ele>
        <time>2012-05-09T09:00:18Z</time>
      </trkpt>
      <trkpt lat="44.06661" lon="4.82087">
        <ele>73</ele>
        <time>2012-05-09T09:00:24Z</time>
      </trkpt>
      <trkpt lat="44.06653" lon="4.82044">
        <ele>72</ele>
        <time>2012-05-09T09:01:47Z</time>
      </trkpt>
      <trkpt lat="44.06652" lon="4.82025">
        <ele>73</ele>
        <time>2012-05-09T09:01:54Z</time>
      </trkpt>
      <trkpt lat="44.06656" lon="4.81989">
        <ele>76</ele>
        <time>2012-05-09T09:02:08Z</time>
      </trkpt>
      <trkpt lat="44.06663" lon="4.81968">
        <ele>77</ele>
        <time>2012-05-09T09:02:18Z</time>
      </trkpt>
      <trkpt lat="44.06677" lon="4.81933">
        <ele>83</ele>
        <time>2012-05-09T09:02:34Z</time>
      </trkpt>
      <trkpt lat="44.06684" lon="4.81913">
        <ele>86</ele>
        <time>2012-05-09T09:02:43Z</time>
      </trkpt>
      <trkpt lat="44.06695" lon="4.81869">
        <ele>89</ele>
        <time>2012-05-09T09:03:01Z</time>
      </trkpt>
      <trkpt lat="44.06699" lon="4.81851">
        <ele>89</ele>
        <time>2012-05-09T09:03:08Z</time>
      </trkpt>
      <trkpt lat="44.06709" lon="4.81814">
        <ele>89</ele>
        <time>2012-05-09T09:03:22Z</time>
      </trkpt>
      <trkpt lat="44.06717" lon="4.81792">
        <ele>89</ele>
        <time>2012-05-09T09:03:29Z</time>
      </trkpt>
      <trkpt lat="44.06733" lon="4.81731">
        <ele>88</ele>
        <time>2012-05-09T09:03:47Z</time>
      </trkpt>
      <trkpt lat="44.06739" lon="4.8171">
        <ele>87</ele>
        <time>2012-05-09T09:03:54Z</time>
      </trkpt>
      <trkpt lat="44.06743" lon="4.81699">
        <ele>87</ele>
        <time>2012-05-09T09:04:01Z</time>
      </trkpt>
      <trkpt lat="44.06746" lon="4.81687">
        <ele>88</ele>
        <time>2012-05-09T09:04:15Z</time>
      </trkpt>
      <trkpt lat="44.0676" lon="4.81636">
        <ele>94</ele>
        <time>2012-05-09T09:04:32Z</time>
      </trkpt>
      <trkpt lat="44.06766" lon="4.8161">
        <ele>94</ele>
        <time>2012-05-09T09:04:41Z</time>
      </trkpt>
      <trkpt lat="44.06779" lon="4.8156">
        <ele>98</ele>
        <time>2012-05-09T09:05:00Z</time>
      </trkpt>
      <trkpt lat="44.06786" lon="4.81538">
        <ele>100</ele>
        <time>2012-05-09T09:05:08Z</time>
      </trkpt>
      <trkpt lat="44.06797" lon="4.81497">
        <ele>104</ele>
        <time>2012-05-09T09:05:27Z</time>
      </trkpt>
      <trkpt lat="44.06798" lon="4.81482">
        <ele>105</ele>
        <time>2012-05-09T09:05:35Z</time>
      </trkpt>
      <trkpt lat="44.068" lon="4.81449">
        <ele>105</ele>
        <time>2012-05-09T09:05:52Z</time>
      </trkpt>
      <trkpt lat="44.06803" lon="4.81429">
        <ele>106</ele>
        <time>2012-05-09T09:05:59Z</time>
      </trkpt>
      <trkpt lat="44.06814" lon="4.81382">
        <ele>107</ele>
        <time>2012-05-09T09:06:15Z</time>
      </trkpt>
      <trkpt lat="44.06821" lon="4.8137">
        <ele>107</ele>
        <time>2012-05-09T09:06:21Z</time>
      </trkpt>
      <trkpt lat="44.06853" lon="4.81339">
        <ele>111</ele>
        <time>2012-05-09T09:06:38Z</time>
      </trkpt>
      <trkpt lat="44.0687" lon="4.81315">
        <ele>111</ele>
        <time>2012-05-09T09:06:48Z</time>
      </trkpt>
      <trkpt lat="44.06893" lon="4.81274">
        <ele>110</ele>
        <time>2012-05-09T09:07:03Z</time>
      </trkpt>
      <trkpt lat="44.069" lon="4.81246">
        <ele>108</ele>
        <time>2012-05-09T09:07:09Z</time>
      </trkpt>
      <trkpt lat="44.06924" lon="4.81205">
        <ele>107</ele>
        <time>2012-05-09T09:07:17Z</time>
      </trkpt>
      <trkpt lat="44.06929" lon="4.812">
        <ele>106</ele>
        <time>2012-05-09T09:07:18Z</time>
      </trkpt>
      <trkpt lat="44.06996" lon="4.81151">
        <ele>102</ele>
        <time>2012-05-09T09:07:31Z</time>
      </trkpt>
      <trkpt lat="44.07008" lon="4.81138">
        <ele>106</ele>
        <time>2012-05-09T09:07:34Z</time>
      </trkpt>
      <trkpt lat="44.07035" lon="4.81083">
        <ele>107</ele>
        <time>2012-05-09T09:07:48Z</time>
      </trkpt>
      <trkpt lat="44.07051" lon="4.81066">
        <ele>104</ele>
        <time>2012-05-09T09:07:55Z</time>
      </trkpt>
      <trkpt lat="44.07081" lon="4.81032">
        <ele>103</ele>
        <time>2012-05-09T09:08:10Z</time>
      </trkpt>
      <trkpt lat="44.07084" lon="4.81027">
        <ele>106</ele>
        <time>2012-05-09T09:08:12Z</time>
      </trkpt>
      <trkpt lat="44.07053" lon="4.80991">
        <ele>97</ele>
        <time>2012-05-09T09:08:24Z</time>
      </trkpt>
      <trkpt lat="44.07032" lon="4.8098">
        <ele>96</ele>
        <time>2012-05-09T09:08:30Z</time>
      </trkpt>
      <trkpt lat="44.06972" lon="4.81004">
        <ele>96</ele>
        <time>2012-05-09T09:08:45Z</time>
      </trkpt>
      <trkpt lat="44.06934" lon="4.81018">
        <ele>94</ele>
        <time>2012-05-09T09:08:54Z</time>
      </trkpt>
      <trkpt lat="44.06896" lon="4.81033">
        <ele>92</ele>
        <time>2012-05-09T09:09:03Z</time>
      </trkpt>
      <trkpt lat="44.06856" lon="4.81039">
        <ele>92</ele>
        <time>2012-05-09T09:09:10Z</time>
      </trkpt>
      <trkpt lat="44.06807" lon="4.81037">
        <ele>90</ele>
        <time>2012-05-09T09:09:20Z</time>
      </trkpt>
      <trkpt lat="44.06783" lon="4.81041">
        <ele>89</ele>
        <time>2012-05-09T09:09:28Z</time>
      </trkpt>
      <trkpt lat="44.06733" lon="4.81044">
        <ele>87</ele>
        <time>2012-05-09T09:09:42Z</time>
      </trkpt>
      <trkpt lat="44.06708" lon="4.81047">
        <ele>87</ele>
        <time>2012-05-09T09:09:48Z</time>
      </trkpt>
      <trkpt lat="44.06653" lon="4.81056">
        <ele>86</ele>
        <time>2012-05-09T09:10:02Z</time>
      </trkpt>
      <trkpt lat="44.06637" lon="4.81051">
        <ele>85</ele>
        <time>2012-05-09T09:10:06Z</time>
      </trkpt>
      <trkpt lat="44.06594" lon="4.81024">
        <ele>83</ele>
        <time>2012-05-09T09:10:20Z</time>
      </trkpt>
      <trkpt lat="44.06594" lon="4.81024">
        <ele>83</ele>
        <time>2012-05-09T09:10:21Z</time>
      </trkpt>
      <trkpt lat="44.06567" lon="4.81026">
        <ele>81</ele>
        <time>2012-05-09T09:11:14Z</time>
      </trkpt>
      <trkpt lat="44.06546" lon="4.81027">
        <ele>81</ele>
        <time>2012-05-09T09:11:20Z</time>
      </trkpt>
      <trkpt lat="44.06465" lon="4.81051">
        <ele>77</ele>
        <time>2012-05-09T09:11:39Z</time>
      </trkpt>
      <trkpt lat="44.0644" lon="4.81064">
        <ele>77</ele>
        <time>2012-05-09T09:11:46Z</time>
      </trkpt>
      <trkpt lat="44.06379" lon="4.81106">
        <ele>77</ele>
        <time>2012-05-09T09:12:04Z</time>
      </trkpt>
      <trkpt lat="44.06368" lon="4.81114">
        <ele>77</ele>
        <time>2012-05-09T09:12:07Z</time>
      </trkpt>
      <trkpt lat="44.06304" lon="4.81141">
        <ele>74</ele>
        <time>2012-05-09T09:12:22Z</time>
      </trkpt>
      <trkpt lat="44.06279" lon="4.81154">
        <ele>73</ele>
        <time>2012-05-09T09:12:27Z</time>
      </trkpt>
      <trkpt lat="44.06219" lon="4.81223">
        <ele>73</ele>
        <time>2012-05-09T09:12:43Z</time>
      </trkpt>
      <trkpt lat="44.06191" lon="4.8126">
        <ele>74</ele>
        <time>2012-05-09T09:12:51Z</time>
      </trkpt>
      <trkpt lat="44.06139" lon="4.81346">
        <ele>72</ele>
        <time>2012-05-09T09:13:07Z</time>
      </trkpt>
      <trkpt lat="44.06111" lon="4.81393">
        <ele>71</ele>
        <time>2012-05-09T09:13:15Z</time>
      </trkpt>
      <trkpt lat="44.06075" lon="4.81383">
        <ele>67</ele>
        <time>2012-05-09T09:13:22Z</time>
      </trkpt>
      <trkpt lat="44.0605" lon="4.8135">
        <ele>65</ele>
        <time>2012-05-09T09:13:27Z</time>
      </trkpt>
      <trkpt lat="44.06018" lon="4.81356">
        <ele>63</ele>
        <time>2012-05-09T09:13:32Z</time>
      </trkpt>
      <trkpt lat="44.06015" lon="4.81367">
        <ele>63</ele>
        <time>2012-05-09T09:13:33Z</time>
      </trkpt>
      <trkpt lat="44.05979" lon="4.81448">
        <ele>60</ele>
        <time>2012-05-09T09:13:42Z</time>
      </trkpt>
      <trkpt lat="44.05965" lon="4.81459">
        <ele>59</ele>
        <time>2012-05-09T09:13:45Z</time>
      </trkpt>
      <trkpt lat="44.05924" lon="4.81478">
        <ele>56</ele>
        <time>2012-05-09T09:13:57Z</time>
      </trkpt>
      <trkpt lat="44.0591" lon="4.81482">
        <ele>53</ele>
        <time>2012-05-09T09:14:03Z</time>
      </trkpt>
      <trkpt lat="44.0591" lon="4.81477">
        <ele>53</ele>
        <time>2012-05-09T09:14:45Z</time>
      </trkpt>
      <trkpt lat="44.05898" lon="4.81485">
        <ele>53</ele>
        <time>2012-05-09T09:16:47Z</time>
      </trkpt>
      <trkpt lat="44.05864" lon="4.81496">
        <ele>52</ele>
        <time>2012-05-09T09:17:01Z</time>
      </trkpt>
      <trkpt lat="44.05863" lon="4.81495">
        <ele>52</ele>
        <time>2012-05-09T09:17:04Z</time>
      </trkpt>
      <trkpt lat="44.05851" lon="4.81503">
        <ele>51</ele>
        <time>2012-05-09T09:17:18Z</time>
      </trkpt>
      <trkpt lat="44.05835" lon="4.81543">
        <ele>51</ele>
        <time>2012-05-09T09:17:25Z</time>
      </trkpt>
      <trkpt lat="44.05804" lon="4.81634">
        <ele>47</ele>
        <time>2012-05-09T09:17:39Z</time>
      </trkpt>
      <trkpt lat="44.05791" lon="4.81646">
        <ele>47</ele>
        <time>2012-05-09T09:17:43Z</time>
      </trkpt>
      <trkpt lat="44.05746" lon="4.81628">
        <ele>45</ele>
        <time>2012-05-09T09:17:51Z</time>
      </trkpt>
      <trkpt lat="44.0571" lon="4.81615">
        <ele>45</ele>
        <time>2012-05-09T09:17:58Z</time>
      </trkpt>
      <trkpt lat="44.0562" lon="4.81594">
        <ele>45</ele>
        <time>2012-05-09T09:18:15Z</time>
      </trkpt>
      <trkpt lat="44.05596" lon="4.81567">
        <ele>44</ele>
        <time>2012-05-09T09:18:21Z</time>
      </trkpt>
      <trkpt lat="44.05543" lon="4.81481">
        <ele>42</ele>
        <time>2012-05-09T09:18:38Z</time>
      </trkpt>
      <trkpt lat="44.05533" lon="4.81444">
        <ele>42</ele>
        <time>2012-05-09T09:18:44Z</time>
      </trkpt>
      <trkpt lat="44.05543" lon="4.81364">
        <ele>42</ele>
        <time>2012-05-09T09:18:57Z</time>
      </trkpt>
      <trkpt lat="44.05538" lon="4.81337">
        <ele>42</ele>
        <time>2012-05-09T09:19:02Z</time>
      </trkpt>
      <trkpt lat="44.05547" lon="4.81316">
        <ele>42</ele>
        <time>2012-05-09T09:22:55Z</time>
      </trkpt>
      <trkpt lat="44.05562" lon="4.81305">
        <ele>43</ele>
        <time>2012-05-09T09:23:01Z</time>
      </trkpt>
      <trkpt lat="44.05572" lon="4.81298">
        <ele>43</ele>
        <time>2012-05-09T09:23:07Z</time>
      </trkpt>
      <trkpt lat="44.0556" lon="4.81306">
        <ele>43</ele>
        <time>2012-05-09T09:23:34Z</time>
      </trkpt>
      <trkpt lat="44.05529" lon="4.81317">
        <ele>42</ele>
        <time>2012-05-09T09:23:45Z</time>
      </trkpt>
      <trkpt lat="44.0551" lon="4.81278">
        <ele>42</ele>
        <time>2012-05-09T09:23:53Z</time>
      </trkpt>
      <trkpt lat="44.05508" lon="4.81229">
        <ele>41</ele>
        <time>2012-05-09T09:24:02Z</time>
      </trkpt>
      <trkpt lat="44.05514" lon="4.81221">
        <ele>41</ele>
        <time>2012-05-09T09:24:04Z</time>
      </trkpt>
      <trkpt lat="44.05547" lon="4.81202">
        <ele>41</ele>
        <time>2012-05-09T09:24:14Z</time>
      </trkpt>
      <trkpt lat="44.05556" lon="4.81177">
        <ele>41</ele>
        <time>2012-05-09T09:24:19Z</time>
      </trkpt>
      <trkpt lat="44.0556" lon="4.81154">
        <ele>40</ele>
        <time>2012-05-09T09:24:23Z</time>
      </trkpt>
      <trkpt lat="44.05564" lon="4.81098">
        <ele>40</ele>
        <time>2012-05-09T09:24:32Z</time>
      </trkpt>
      <trkpt lat="44.05565" lon="4.81014">
        <ele>39</ele>
        <time>2012-05-09T09:24:46Z</time>
      </trkpt>
      <trkpt lat="44.05561" lon="4.80956">
        <ele>38</ele>
        <time>2012-05-09T09:24:55Z</time>
      </trkpt>
      <trkpt lat="44.05558" lon="4.80875">
        <ele>37</ele>
        <time>2012-05-09T09:25:07Z</time>
      </trkpt>
      <trkpt lat="44.05555" lon="4.80814">
        <ele>36</ele>
        <time>2012-05-09T09:25:16Z</time>
      </trkpt>
      <trkpt lat="44.05549" lon="4.80681">
        <ele>35</ele>
        <time>2012-05-09T09:25:35Z</time>
      </trkpt>
      <trkpt lat="44.05552" lon="4.8063">
        <ele>34</ele>
        <time>2012-05-09T09:25:43Z</time>
      </trkpt>
      <trkpt lat="44.05554" lon="4.80592">
        <ele>34</ele>
        <time>2012-05-09T09:25:50Z</time>
      </trkpt>
      <trkpt lat="44.05548" lon="4.80585">
        <ele>34</ele>
        <time>2012-05-09T09:25:54Z</time>
      </trkpt>
      <trkpt lat="44.05542" lon="4.80585">
        <ele>34</ele>
        <time>2012-05-09T09:25:57Z</time>
      </trkpt>
      <trkpt lat="44.05533" lon="4.80581">
        <ele>34</ele>
        <time>2012-05-09T09:26:02Z</time>
      </trkpt>
      <trkpt lat="44.0552" lon="4.8057">
        <ele>35</ele>
        <time>2012-05-09T09:26:10Z</time>
      </trkpt>
      <trkpt lat="44.05513" lon="4.8055">
        <ele>34</ele>
        <time>2012-05-09T09:26:18Z</time>
      </trkpt>
      <trkpt lat="44.05493" lon="4.80531">
        <ele>36</ele>
        <time>2012-05-09T09:26:29Z</time>
      </trkpt>
      <trkpt lat="44.05476" lon="4.80518">
        <ele>36</ele>
        <time>2012-05-09T09:26:36Z</time>
      </trkpt>
      <trkpt lat="44.05441" lon="4.80528">
        <ele>36</ele>
        <time>2012-05-09T09:26:48Z</time>
      </trkpt>
      <trkpt lat="44.05429" lon="4.80544">
        <ele>37</ele>
        <time>2012-05-09T09:26:53Z</time>
      </trkpt>
      <trkpt lat="44.05411" lon="4.80578">
        <ele>37</ele>
        <time>2012-05-09T09:27:03Z</time>
      </trkpt>
      <trkpt lat="44.05398" lon="4.80592">
        <ele>37</ele>
        <time>2012-05-09T09:27:08Z</time>
      </trkpt>
      <trkpt lat="44.05364" lon="4.80608">
        <ele>37</ele>
        <time>2012-05-09T09:27:19Z</time>
      </trkpt>
      <trkpt lat="44.05357" lon="4.80624">
        <ele>37</ele>
        <time>2012-05-09T09:27:23Z</time>
      </trkpt>
      <trkpt lat="44.05336" lon="4.80618">
        <ele>37</ele>
        <time>2012-05-09T09:27:31Z</time>
      </trkpt>
      <trkpt lat="44.05314" lon="4.80609">
        <ele>36</ele>
        <time>2012-05-09T09:27:39Z</time>
      </trkpt>
      <trkpt lat="44.05279" lon="4.80601">
        <ele>36</ele>
        <time>2012-05-09T09:27:50Z</time>
      </trkpt>
      <trkpt lat="44.05265" lon="4.80588">
        <ele>35</ele>
        <time>2012-05-09T09:27:56Z</time>
      </trkpt>
      <trkpt lat="44.05246" lon="4.80584">
        <ele>35</ele>
        <time>2012-05-09T09:28:05Z</time>
      </trkpt>
      <trkpt lat="44.05246" lon="4.80584">
        <ele>35</ele>
        <time>2012-05-09T09:28:06Z</time>
      </trkpt>
      <trkpt lat="44.05242" lon="4.80559">
        <ele>36</ele>
        <time>2012-05-09T09:28:50Z</time>
      </trkpt>
      <trkpt lat="44.05245" lon="4.8053">
        <ele>36</ele>
        <time>2012-05-09T09:28:58Z</time>
      </trkpt>
      <trkpt lat="44.0526" lon="4.80485">
        <ele>35</ele>
        <time>2012-05-09T09:29:11Z</time>
      </trkpt>
      <trkpt lat="44.05265" lon="4.80464">
        <ele>35</ele>
        <time>2012-05-09T09:29:16Z</time>
      </trkpt>
      <trkpt lat="44.05263" lon="4.80392">
        <ele>34</ele>
        <time>2012-05-09T09:29:33Z</time>
      </trkpt>
      <trkpt lat="44.05262" lon="4.8037">
        <ele>34</ele>
        <time>2012-05-09T09:29:38Z</time>
      </trkpt>
      <trkpt lat="44.05264" lon="4.80331">
        <ele>32</ele>
        <time>2012-05-09T09:29:49Z</time>
      </trkpt>
      <trkpt lat="44.05263" lon="4.80319">
        <ele>32</ele>
        <time>2012-05-09T09:30:22Z</time>
      </trkpt>
      <trkpt lat="44.05266" lon="4.80274">
        <ele>30</ele>
        <time>2012-05-09T09:30:36Z</time>
      </trkpt>
      <trkpt lat="44.0526" lon="4.8026">
        <ele>29</ele>
        <time>2012-05-09T09:30:41Z</time>
      </trkpt>
      <trkpt lat="44.05254" lon="4.80251">
        <ele>28</ele>
        <time>2012-05-09T09:31:13Z</time>
      </trkpt>
      <trkpt lat="44.05248" lon="4.80235">
        <ele>27</ele>
        <time>2012-05-09T09:31:17Z</time>
      </trkpt>
      <trkpt lat="44.05244" lon="4.80206">
        <ele>26</ele>
        <time>2012-05-09T09:31:27Z</time>
      </trkpt>
      <trkpt lat="44.05245" lon="4.80201">
        <ele>26</ele>
        <time>2012-05-09T09:47:14Z</time>
      </trkpt>
      <trkpt lat="44.05262" lon="4.80181">
        <ele>27</ele>
        <time>2012-05-09T09:47:22Z</time>
      </trkpt>
      <trkpt lat="44.05268" lon="4.80164">
        <ele>26</ele>
        <time>2012-05-09T09:47:27Z</time>
      </trkpt>
      <trkpt lat="44.05254" lon="4.80148">
        <ele>26</ele>
        <time>2012-05-09T09:47:37Z</time>
      </trkpt>
      <trkpt lat="44.05251" lon="4.80151">
        <ele>26</ele>
        <time>2012-05-09T09:47:39Z</time>
      </trkpt>
      <trkpt lat="44.05242" lon="4.80166">
        <ele>26</ele>
        <time>2012-05-09T09:47:46Z</time>
      </trkpt>
      <trkpt lat="44.05242" lon="4.80172">
        <ele>26</ele>
        <time>2012-05-09T09:47:48Z</time>
      </trkpt>
      <trkpt lat="44.05219" lon="4.80189">
        <ele>26</ele>
        <time>2012-05-09T09:47:58Z</time>
      </trkpt>
      <trkpt lat="44.05214" lon="4.80202">
        <ele>26</ele>
        <time>2012-05-09T09:48:03Z</time>
      </trkpt>
      <trkpt lat="44.05205" lon="4.8022">
        <ele>26</ele>
        <time>2012-05-09T09:48:12Z</time>
      </trkpt>
      <trkpt lat="44.05189" lon="4.8023">
        <ele>26</ele>
        <time>2012-05-09T09:48:20Z</time>
      </trkpt>
      <trkpt lat="44.05181" lon="4.8023">
        <ele>26</ele>
        <time>2012-05-09T09:48:27Z</time>
      </trkpt>
      <trkpt lat="44.05179" lon="4.80231">
        <ele>26</ele>
        <time>2012-05-09T09:48:28Z</time>
      </trkpt>
      <trkpt lat="44.05174" lon="4.80233">
        <ele>26</ele>
        <time>2012-05-09T09:48:41Z</time>
      </trkpt>
      <trkpt lat="44.05174" lon="4.80242">
        <ele>26</ele>
        <time>2012-05-09T09:48:49Z</time>
      </trkpt>
      <trkpt lat="44.05179" lon="4.80264">
        <ele>28</ele>
        <time>2012-05-09T09:49:02Z</time>
      </trkpt>
      <trkpt lat="44.05172" lon="4.80282">
        <ele>28</ele>
        <time>2012-05-09T09:49:09Z</time>
      </trkpt>
      <trkpt lat="44.05144" lon="4.80319">
        <ele>28</ele>
        <time>2012-05-09T09:49:23Z</time>
      </trkpt>
      <trkpt lat="44.05129" lon="4.80342">
        <ele>31</ele>
        <time>2012-05-09T09:49:31Z</time>
      </trkpt>
      <trkpt lat="44.05107" lon="4.80364">
        <ele>30</ele>
        <time>2012-05-09T09:49:43Z</time>
      </trkpt>
      <trkpt lat="44.05097" lon="4.80367">
        <ele>30</ele>
        <time>2012-05-09T09:49:47Z</time>
      </trkpt>
      <trkpt lat="44.05079" lon="4.80399">
        <ele>28</ele>
        <time>2012-05-09T09:49:58Z</time>
      </trkpt>
      <trkpt lat="44.05079" lon="4.80412">
        <ele>28</ele>
        <time>2012-05-09T09:50:02Z</time>
      </trkpt>
      <trkpt lat="44.05078" lon="4.80459">
        <ele>27</ele>
        <time>2012-05-09T09:50:16Z</time>
      </trkpt>
      <trkpt lat="44.05078" lon="4.80483">
        <ele>28</ele>
        <time>2012-05-09T09:50:24Z</time>
      </trkpt>
      <trkpt lat="44.05078" lon="4.80489">
        <ele>29</ele>
        <time>2012-05-09T09:50:36Z</time>
      </trkpt>
      <trkpt lat="44.05078" lon="4.80502">
        <ele>30</ele>
        <time>2012-05-09T09:50:44Z</time>
      </trkpt>
      <trkpt lat="44.05078" lon="4.8051">
        <ele>29</ele>
        <time>2012-05-09T09:50:51Z</time>
      </trkpt>
      <trkpt lat="44.05078" lon="4.80517">
        <ele>29</ele>
        <time>2012-05-09T09:50:58Z</time>
      </trkpt>
      <trkpt lat="44.05077" lon="4.80538">
        <ele>29</ele>
        <time>2012-05-09T09:52:56Z</time>
      </trkpt>
      <trkpt lat="44.05075" lon="4.80558">
        <ele>29</ele>
        <time>2012-05-09T09:53:02Z</time>
      </trkpt>
      <trkpt lat="44.05077" lon="4.80588">
        <ele>31</ele>
        <time>2012-05-09T09:53:12Z</time>
      </trkpt>
      <trkpt lat="44.05076" lon="4.80607">
        <ele>30</ele>
        <time>2012-05-09T09:53:18Z</time>
      </trkpt>
      <trkpt lat="44.05077" lon="4.80642">
        <ele>30</ele>
        <time>2012-05-09T09:53:27Z</time>
      </trkpt>
      <trkpt lat="44.05078" lon="4.80663">
        <ele>30</ele>
        <time>2012-05-09T09:53:32Z</time>
      </trkpt>
      <trkpt lat="44.05077" lon="4.80691">
        <ele>29</ele>
        <time>2012-05-09T09:53:39Z</time>
      </trkpt>
      <trkpt lat="44.0507" lon="4.80722">
        <ele>28</ele>
        <time>2012-05-09T09:53:46Z</time>
      </trkpt>
      <trkpt lat="44.0507" lon="4.80759">
        <ele>27</ele>
        <time>2012-05-09T09:53:55Z</time>
      </trkpt>
      <trkpt lat="44.0507" lon="4.8076">
        <ele>27</ele>
        <time>2012-05-09T09:53:56Z</time>
      </trkpt>
      <trkpt lat="44.05077" lon="4.80778">
        <ele>27</ele>
        <time>2012-05-09T09:54:11Z</time>
      </trkpt>
      <trkpt lat="44.05081" lon="4.80793">
        <ele>27</ele>
        <time>2012-05-09T09:54:17Z</time>
      </trkpt>
      <trkpt lat="44.05087" lon="4.80828">
        <ele>30</ele>
        <time>2012-05-09T09:54:29Z</time>
      </trkpt>
      <trkpt lat="44.05088" lon="4.80836">
        <ele>30</ele>
        <time>2012-05-09T09:54:32Z</time>
      </trkpt>
      <trkpt lat="44.05077" lon="4.80863">
        <ele>28</ele>
        <time>2012-05-09T09:54:43Z</time>
      </trkpt>
      <trkpt lat="44.05075" lon="4.80867">
        <ele>28</ele>
        <time>2012-05-09T09:54:44Z</time>
      </trkpt>
      <trkpt lat="44.05059" lon="4.80915">
        <ele>29</ele>
        <time>2012-05-09T09:54:55Z</time>
      </trkpt>
      <trkpt lat="44.05049" lon="4.80941">
        <ele>29</ele>
        <time>2012-05-09T09:55:02Z</time>
      </trkpt>
      <trkpt lat="44.05042" lon="4.80954">
        <ele>29</ele>
        <time>2012-05-09T09:55:07Z</time>
      </trkpt>
      <trkpt lat="44.05034" lon="4.80973">
        <ele>29</ele>
        <time>2012-05-09T09:55:13Z</time>
      </trkpt>
      <trkpt lat="44.05008" lon="4.81028">
        <ele>29</ele>
        <time>2012-05-09T09:55:27Z</time>
      </trkpt>
      <trkpt lat="44.04993" lon="4.81056">
        <ele>25</ele>
        <time>2012-05-09T09:55:34Z</time>
      </trkpt>
      <trkpt lat="44.04967" lon="4.81105">
        <ele>26</ele>
        <time>2012-05-09T09:55:48Z</time>
      </trkpt>
      <trkpt lat="44.04954" lon="4.81124">
        <ele>26</ele>
        <time>2012-05-09T09:55:54Z</time>
      </trkpt>
      <trkpt lat="44.04919" lon="4.81164">
        <ele>25</ele>
        <time>2012-05-09T09:56:06Z</time>
      </trkpt>
      <trkpt lat="44.04908" lon="4.81174">
        <ele>25</ele>
        <time>2012-05-09T09:56:11Z</time>
      </trkpt>
      <trkpt lat="44.04901" lon="4.81183">
        <ele>25</ele>
        <time>2012-05-09T09:56:18Z</time>
      </trkpt>
      <trkpt lat="44.04898" lon="4.81185">
        <ele>25</ele>
        <time>2012-05-09T09:56:24Z</time>
      </trkpt>
      <trkpt lat="44.04892" lon="4.81197">
        <ele>25</ele>
        <time>2012-05-09T09:56:39Z</time>
      </trkpt>
      <trkpt lat="44.04887" lon="4.8121">
        <ele>25</ele>
        <time>2012-05-09T09:56:44Z</time>
      </trkpt>
      <trkpt lat="44.04854" lon="4.8126">
        <ele>25</ele>
        <time>2012-05-09T09:57:01Z</time>
      </trkpt>
      <trkpt lat="44.04851" lon="4.81263">
        <ele>25</ele>
        <time>2012-05-09T09:57:05Z</time>
      </trkpt>
      <trkpt lat="44.0483" lon="4.81297">
        <ele>25</ele>
        <time>2012-05-09T09:58:15Z</time>
      </trkpt>
      <trkpt lat="44.04819" lon="4.81314">
        <ele>25</ele>
        <time>2012-05-09T09:58:21Z</time>
      </trkpt>
      <trkpt lat="44.04802" lon="4.8135">
        <ele>26</ele>
        <time>2012-05-09T09:58:32Z</time>
      </trkpt>
      <trkpt lat="44.04793" lon="4.81369">
        <ele>26</ele>
        <time>2012-05-09T09:58:38Z</time>
      </trkpt>
      <trkpt lat="44.04774" lon="4.81407">
        <ele>25</ele>
        <time>2012-05-09T09:58:47Z</time>
      </trkpt>
      <trkpt lat="44.04764" lon="4.81429">
        <ele>26</ele>
        <time>2012-05-09T09:58:53Z</time>
      </trkpt>
      <trkpt lat="44.0476" lon="4.81437">
        <ele>26</ele>
        <time>2012-05-09T09:58:58Z</time>
      </trkpt>
      <trkpt lat="44.0475" lon="4.8146">
        <ele>26</ele>
        <time>2012-05-09T10:00:09Z</time>
      </trkpt>
      <trkpt lat="44.04736" lon="4.81492">
        <ele>26</ele>
        <time>2012-05-09T10:00:19Z</time>
      </trkpt>
      <trkpt lat="44.04718" lon="4.81527">
        <ele>26</ele>
        <time>2012-05-09T10:00:27Z</time>
      </trkpt>
      <trkpt lat="44.04721" lon="4.81557">
        <ele>26</ele>
        <time>2012-05-09T10:00:37Z</time>
      </trkpt>
      <trkpt lat="44.04733" lon="4.81569">
        <ele>26</ele>
        <time>2012-05-09T10:00:45Z</time>
      </trkpt>
      <trkpt lat="44.04727" lon="4.81597">
        <ele>26</ele>
        <time>2012-05-09T10:02:52Z</time>
      </trkpt>
      <trkpt lat="44.04727" lon="4.816">
        <ele>26</ele>
        <time>2012-05-09T10:02:56Z</time>
      </trkpt>
      <trkpt lat="44.04701" lon="4.81601">
        <ele>27</ele>
        <time>2012-05-09T10:04:48Z</time>
      </trkpt>
      <trkpt lat="44.04672" lon="4.81616">
        <ele>27</ele>
        <time>2012-05-09T10:04:59Z</time>
      </trkpt>
      <trkpt lat="44.04633" lon="4.81654">
        <ele>26</ele>
        <time>2012-05-09T10:05:13Z</time>
      </trkpt>
      <trkpt lat="44.04628" lon="4.81662">
        <ele>26</ele>
        <time>2012-05-09T10:05:17Z</time>
      </trkpt>
      <trkpt lat="44.04668" lon="4.81695">
        <ele>25</ele>
        <time>2012-05-09T10:05:41Z</time>
      </trkpt>
      <trkpt lat="44.04705" lon="4.81718">
        <ele>25</ele>
        <time>2012-05-09T10:05:51Z</time>
      </trkpt>
      <trkpt lat="44.04719" lon="4.81818">
        <ele>25</ele>
        <time>2012-05-09T10:06:09Z</time>
      </trkpt>
      <trkpt lat="44.04723" lon="4.81862">
        <ele>26</ele>
        <time>2012-05-09T10:06:16Z</time>
      </trkpt>
      <trkpt lat="44.04729" lon="4.82032">
        <ele>27</ele>
        <time>2012-05-09T10:06:45Z</time>
      </trkpt>
      <trkpt lat="44.04743" lon="4.82132">
        <ele>27</ele>
        <time>2012-05-09T10:07:06Z</time>
      </trkpt>
      <trkpt lat="44.04785" lon="4.82266">
        <ele>29</ele>
        <time>2012-05-09T10:07:37Z</time>
      </trkpt>
      <trkpt lat="44.04805" lon="4.82294">
        <ele>30</ele>
        <time>2012-05-09T10:07:46Z</time>
      </trkpt>
      <trkpt lat="44.04878" lon="4.82384">
        <ele>33</ele>
        <time>2012-05-09T10:08:17Z</time>
      </trkpt>
      <trkpt lat="44.04902" lon="4.82443">
        <ele>33</ele>
        <time>2012-05-09T10:08:34Z</time>
      </trkpt>
      <trkpt lat="44.04948" lon="4.82527">
        <ele>34</ele>
        <time>2012-05-09T10:08:59Z</time>
      </trkpt>
      <trkpt lat="44.04954" lon="4.82535">
        <ele>34</ele>
        <time>2012-05-09T10:09:04Z</time>
      </trkpt>
      <trkpt lat="44.05" lon="4.82554">
        <ele>35</ele>
        <time>2012-05-09T10:10:17Z</time>
      </trkpt>
      <trkpt lat="44.05057" lon="4.8256">
        <ele>36</ele>
        <time>2012-05-09T10:10:34Z</time>
      </trkpt>
      <trkpt lat="44.05165" lon="4.82581">
        <ele>40</ele>
        <time>2012-05-09T10:11:06Z</time>
      </trkpt>
      <trkpt lat="44.0518" lon="4.82583">
        <ele>41</ele>
        <time>2012-05-09T10:11:12Z</time>
      </trkpt>
      <trkpt lat="44.05247" lon="4.82622">
        <ele>41</ele>
        <time>2012-05-09T10:11:36Z</time>
      </trkpt>
      <trkpt lat="44.05306" lon="4.82643">
        <ele>45</ele>
        <time>2012-05-09T10:11:55Z</time>
      </trkpt>
      <trkpt lat="44.05375" lon="4.82682">
        <ele>49</ele>
        <time>2012-05-09T10:12:19Z</time>
      </trkpt>
      <trkpt lat="44.05399" lon="4.82674">
        <ele>51</ele>
        <time>2012-05-09T10:12:27Z</time>
      </trkpt>
      <trkpt lat="44.05447" lon="4.82723">
        <ele>55</ele>
        <time>2012-05-09T10:12:49Z</time>
      </trkpt>
      <trkpt lat="44.05467" lon="4.82774">
        <ele>57</ele>
        <time>2012-05-09T10:13:04Z</time>
      </trkpt>
      <trkpt lat="44.0551" lon="4.82842">
        <ele>63</ele>
        <time>2012-05-09T10:13:31Z</time>
      </trkpt>
      <trkpt lat="44.05525" lon="4.82854">
        <ele>65</ele>
        <time>2012-05-09T10:13:39Z</time>
      </trkpt>
      <trkpt lat="44.05523" lon="4.82914">
        <ele>67</ele>
        <time>2012-05-09T10:14:00Z</time>
      </trkpt>
      <trkpt lat="44.05514" lon="4.82965">
        <ele>70</ele>
        <time>2012-05-09T10:14:17Z</time>
      </trkpt>
      <trkpt lat="44.05552" lon="4.82964">
        <ele>72</ele>
        <time>2012-05-09T10:14:35Z</time>
      </trkpt>
      <trkpt lat="44.05566" lon="4.82959">
        <ele>73</ele>
        <time>2012-05-09T10:14:42Z</time>
      </trkpt>
      <trkpt lat="44.05581" lon="4.8298">
        <ele>74</ele>
        <time>2012-05-09T10:15:12Z</time>
      </trkpt>
      <trkpt lat="44.05589" lon="4.82971">
        <ele>80</ele>
        <time>2012-05-09T10:15:18Z</time>
      </trkpt>
      <trkpt lat="44.05643" lon="4.82934">
        <ele>84</ele>
        <time>2012-05-09T10:15:46Z</time>
      </trkpt>
      <trkpt lat="44.05652" lon="4.8292">
        <ele>85</ele>
        <time>2012-05-09T10:15:52Z</time>
      </trkpt>
      <trkpt lat="44.05704" lon="4.82867">
        <ele>89</ele>
        <time>2012-05-09T10:16:19Z</time>
      </trkpt>
      <trkpt lat="44.05741" lon="4.82837">
        <ele>92</ele>
        <time>2012-05-09T10:16:38Z</time>
      </trkpt>
      <trkpt lat="44.05777" lon="4.82782">
        <ele>98</ele>
        <time>2012-05-09T10:17:05Z</time>
      </trkpt>
      <trkpt lat="44.05792" lon="4.82755">
        <ele>99</ele>
        <time>2012-05-09T10:17:16Z</time>
      </trkpt>
      <trkpt lat="44.0582" lon="4.82685">
        <ele>97</ele>
        <time>2012-05-09T10:17:43Z</time>
      </trkpt>
      <trkpt lat="44.05834" lon="4.82642">
        <ele>101</ele>
        <time>2012-05-09T10:17:58Z</time>
      </trkpt>
      <trkpt lat="44.05887" lon="4.82597">
        <ele>102</ele>
        <time>2012-05-09T10:18:24Z</time>
      </trkpt>
      <trkpt lat="44.05913" lon="4.82592">
        <ele>102</ele>
        <time>2012-05-09T10:18:33Z</time>
      </trkpt>
      <trkpt lat="44.06027" lon="4.82547">
        <ele>97</ele>
        <time>2012-05-09T10:18:59Z</time>
      </trkpt>
      <trkpt lat="44.06108" lon="4.82506">
        <ele>98</ele>
        <time>2012-05-09T10:19:16Z</time>
      </trkpt>
      <trkpt lat="44.06219" lon="4.82451">
        <ele>97</ele>
        <time>2012-05-09T10:19:41Z</time>
      </trkpt>
      <trkpt lat="44.06234" lon="4.82438">
        <ele>96</ele>
        <time>2012-05-09T10:19:46Z</time>
      </trkpt>
      <trkpt lat="44.06234" lon="4.82494">
        <ele>102</ele>
        <time>2012-05-09T10:20:08Z</time>
      </trkpt>
      <trkpt lat="44.06216" lon="4.82526">
        <ele>106</ele>
        <time>2012-05-09T10:20:24Z</time>
      </trkpt>
      <trkpt lat="44.06165" lon="4.82574">
        <ele>105</ele>
        <time>2012-05-09T10:20:50Z</time>
      </trkpt>
      <trkpt lat="44.06152" lon="4.82595">
        <ele>108</ele>
        <time>2012-05-09T10:20:58Z</time>
      </trkpt>
      <trkpt lat="44.06133" lon="4.82671">
        <ele>112</ele>
        <time>2012-05-09T10:21:25Z</time>
      </trkpt>
      <trkpt lat="44.06137" lon="4.82708">
        <ele>112</ele>
        <time>2012-05-09T10:21:37Z</time>
      </trkpt>
      <trkpt lat="44.06094" lon="4.8272">
        <ele>112</ele>
        <time>2012-05-09T10:21:59Z</time>
      </trkpt>
      <trkpt lat="44.06072" lon="4.82725">
        <ele>113</ele>
        <time>2012-05-09T10:22:07Z</time>
      </trkpt>
      <trkpt lat="44.05985" lon="4.82756">
        <ele>115</ele>
        <time>2012-05-09T10:22:34Z</time>
      </trkpt>
      <trkpt lat="44.0593" lon="4.82802">
        <ele>114</ele>
        <time>2012-05-09T10:22:51Z</time>
      </trkpt>
      <trkpt lat="44.0586" lon="4.82866">
        <ele>112</ele>
        <time>2012-05-09T10:23:14Z</time>
      </trkpt>
    </trkseg>
  </trk>
</gpx>